Wetterdaten: Dienstag, 14.08.2018
Datum Zeit Temp. Aussen Temp. o. S. +5cm Feuchte Auss Luftdruck Regen Sonnenschein Regendauer Solar Windben Empfang
14.08.2018 00:00 16,8 C 16,1 C 16,1 C 93 % 1006,7 hPa 0,0 l/m 0 min 0 min 0 W/m 2,3 km/h (1 Bft) 97,83 %
14.08.2018 00:02 16,8 C 16,1 C 16,1 C 93 % 1006,7 hPa 0,0 l/m 0 min 0 min 0 W/m 2,3 km/h (1 Bft) 95,56 %
14.08.2018 00:04 16,7 C 16,1 C 16,1 C 93 % 1006,7 hPa 0,0 l/m 0 min 0 min 0 W/m 2,3 km/h (1 Bft) 100,00 %
14.08.2018 00:07 16,7 C 16,1 C 16,1 C 93 % 1006,8 hPa 0,0 l/m 0 min 0 min 0 W/m 4,5 km/h (1 Bft) 100,00 %
14.08.2018 00:08 16,7 C 16,1 C 16,1 C 93 % 1006,8 hPa 0,0 l/m 0 min 0 min 0 W/m 2,3 km/h (1 Bft) 100,00 %
14.08.2018 00:10 16,7 C 16,1 C 16,1 C 93 % 1006,8 hPa 0,0 l/m 0 min 0 min 0 W/m 4,5 km/h (1 Bft) 97,87 %
14.08.2018 00:12 16,7 C 16,1 C 16,1 C 93 % 1006,8 hPa 0,0 l/m 0 min 0 min 0 W/m 4,5 km/h (1 Bft) 97,87 %
14.08.2018 00:14 16,7 C 16,1 C 16,1 C 93 % 1006,8 hPa 0,0 l/m 0 min 0 min 0 W/m 4,5 km/h (1 Bft) 100,00 %
14.08.2018 00:16 16,7 C 16,1 C 16,1 C 93 % 1006,8 hPa 0,0 l/m 0 min 0 min 0 W/m 4,5 km/h (1 Bft) 95,74 %
14.08.2018 00:18 16,8 C 16,1 C 16,1 C 93 % 1007,0 hPa 0,0 l/m 0 min 0 min 0 W/m 4,5 km/h (1 Bft) 100,00 %
14.08.2018 00:20 16,7 C 16,1 C 16,1 C 93 % 1006,9 hPa 0,0 l/m 0 min 0 min 0 W/m 6,8 km/h (2 Bft) 100,00 %
14.08.2018 00:22 16,8 C 16,1 C 16,1 C 94 % 1007,1 hPa 0,0 l/m 0 min 0 min 0 W/m 4,5 km/h (1 Bft) 94,83 %
14.08.2018 00:24 16,8 C 16,1 C 16,1 C 94 % 1007,0 hPa 0,0 l/m 0 min 0 min 0 W/m 2,3 km/h (1 Bft) 97,22 %
14.08.2018 00:26 16,8 C 16,1 C 16,1 C 94 % 1007,0 hPa 0,0 l/m 0 min 0 min 0 W/m 4,5 km/h (1 Bft) 97,83 %
14.08.2018 00:28 16,8 C 16,1 C 16,1 C 94 % 1007,0 hPa 0,0 l/m 0 min 0 min 0 W/m 2,3 km/h (1 Bft) 97,87 %
14.08.2018 00:30 16,8 C 16,1 C 16,1 C 94 % 1007,0 hPa 0,0 l/m 0 min 0 min 0 W/m 0,0 km/h (0 Bft) 97,87 %
14.08.2018 00:32 16,8 C 16,1 C 16,1 C 94 % 1007,0 hPa 0,0 l/m 0 min 0 min 0 W/m 0,0 km/h (0 Bft) 95,74 %
14.08.2018 00:34 16,8 C 16,1 C 16,1 C 94 % 1007,1 hPa 0,0 l/m 0 min 0 min 0 W/m 2,3 km/h (1 Bft) 95,74 %
14.08.2018 00:36 16,8 C 16,1 C 16,1 C 94 % 1007,1 hPa 0,0 l/m 0 min 0 min 0 W/m 2,3 km/h (1 Bft) 96,55 %
14.08.2018 00:38 16,8 C 16,1 C 16,1 C 94 % 1007,1 hPa 0,0 l/m 0 min 0 min 0 W/m 0,0 km/h (0 Bft) 97,87 %
14.08.2018 00:40 16,8 C 16,1 C 16,1 C 94 % 1007,1 hPa 0,0 l/m 0 min 0 min 0 W/m 2,3 km/h (1 Bft) 97,87 %
14.08.2018 00:42 16,9 C 16,1 C 16,1 C 94 % 1007,2 hPa 0,0 l/m 0 min 0 min 0 W/m 2,3 km/h (1 Bft) 95,65 %
14.08.2018 00:44 16,9 C 16,1 C 16,1 C 94 % 1007,1 hPa 0,0 l/m 0 min 0 min 0 W/m 2,3 km/h (1 Bft) 97,87 %
14.08.2018 00:46 16,9 C 16,1 C 16,1 C 94 % 1007,2 hPa 0,0 l/m 0 min 0 min 0 W/m 4,5 km/h (1 Bft) 95,74 %
14.08.2018 00:48 16,9 C 16,1 C 16,1 C 94 % 1007,2 hPa 0,0 l/m 0 min 0 min 0 W/m 2,3 km/h (1 Bft) 97,87 %
14.08.2018 00:50 16,9 C 16,1 C 16,1 C 94 % 1007,2 hPa 0,0 l/m 0 min 0 min 0 W/m 4,5 km/h (1 Bft) 97,87 %
14.08.2018 00:52 16,9 C 16,1 C 16,1 C 94 % 1007,2 hPa 0,0 l/m 0 min 0 min 0 W/m 2,3 km/h (1 Bft) 97,87 %
14.08.2018 00:54 16,9 C 16,1 C 16,1 C 94 % 1007,2 hPa 0,0 l/m 0 min 0 min 0 W/m 4,5 km/h (1 Bft) 95,65 %
14.08.2018 00:56 16,9 C 16,1 C 16,1 C 94 % 1007,2 hPa 0,0 l/m 0 min 0 min 0 W/m 2,3 km/h (1 Bft) 97,87 %
14.08.2018 00:58 16,9 C 16,1 C 16,1 C 94 % 1007,3 hPa 0,0 l/m 0 min 0 min 0 W/m 4,5 km/h (1 Bft) 97,87 %
14.08.2018 01:00 16,9 C 16,1 C 16,1 C 94 % 1007,2 hPa 0,0 l/m 0 min 0 min 0 W/m 2,3 km/h (1 Bft) 97,87 %
14.08.2018 01:02 16,9 C 16,1 C 16,1 C 94 % 1007,2 hPa 0,0 l/m 0 min 0 min 0 W/m 4,5 km/h (1 Bft) 97,87 %
14.08.2018 01:04 16,9 C 16,1 C 16,1 C 94 % 1007,3 hPa 0,0 l/m 0 min 0 min 0 W/m 2,3 km/h (1 Bft) 100,00 %
14.08.2018 01:06 16,9 C 16,1 C 16,1 C 94 % 1007,3 hPa 0,0 l/m 0 min 0 min 0 W/m 4,5 km/h (1 Bft) 97,14 %
14.08.2018 01:08 16,9 C 16,1 C 16,1 C 94 % 1007,3 hPa 0,0 l/m 0 min 0 min 0 W/m 2,3 km/h (1 Bft) 100,00 %
14.08.2018 01:10 16,9 C 16,1 C 16,1 C 94 % 1007,4 hPa 0,0 l/m 0 min 0 min 0 W/m 2,3 km/h (1 Bft) 97,87 %
14.08.2018 01:12 16,9 C 16,1 C 16,1 C 94 % 1007,4 hPa 0,0 l/m 0 min 0 min 0 W/m 2,3 km/h (1 Bft) 100,00 %
14.08.2018 01:14 16,9 C 16,1 C 16,1 C 94 % 1007,5 hPa 0,0 l/m 0 min 0 min 0 W/m 4,5 km/h (1 Bft) 97,87 %
14.08.2018 01:16 16,9 C 16,1 C 16,1 C 94 % 1007,4 hPa 0,0 l/m 0 min 0 min 0 W/m 9,0 km/h (2 Bft) 95,74 %
14.08.2018 01:18 16,9 C 16,1 C 16,1 C 94 % 1007,5 hPa 0,0 l/m 0 min 0 min 0 W/m 2,3 km/h (1 Bft) 97,87 %
14.08.2018 01:20 16,9 C 16,1 C 16,1 C 94 % 1007,5 hPa 0,0 l/m 0 min 0 min 0 W/m 2,3 km/h (1 Bft) 97,87 %
14.08.2018 01:22 16,9 C 16,1 C 16,1 C 94 % 1007,6 hPa 0,0 l/m 0 min 0 min 0 W/m 2,3 km/h (1 Bft) 93,10 %
14.08.2018 01:24 16,9 C 16,1 C 16,1 C 94 % 1007,6 hPa 0,0 l/m 0 min 0 min 0 W/m 2,3 km/h (1 Bft) 97,14 %
14.08.2018 01:26 16,9 C 16,1 C 16,1 C 94 % 1007,5 hPa 0,0 l/m 0 min 0 min 0 W/m 2,3 km/h (1 Bft) 97,87 %
14.08.2018 01:28 16,9 C 16,1 C 16,1 C 94 % 1007,5 hPa 0,0 l/m 0 min 0 min 0 W/m 4,5 km/h (1 Bft) 97,87 %
14.08.2018 01:30 16,9 C 16,1 C 16,1 C 94 % 1007,5 hPa 0,0 l/m 0 min 0 min 0 W/m 2,3 km/h (1 Bft) 97,87 %
14.08.2018 01:32 16,9 C 16,1 C 16,1 C 94 % 1007,6 hPa 0,0 l/m 0 min 0 min 0 W/m 2,3 km/h (1 Bft) 97,87 %
14.08.2018 01:34 16,9 C 16,1 C 16,1 C 94 % 1007,7 hPa 0,0 l/m 0 min 0 min 0 W/m 4,5 km/h (1 Bft) 97,87 %
14.08.2018 01:36 16,9 C 16,1 C 16,1 C 94 % 1007,6 hPa 0,0 l/m 0 min 0 min 0 W/m 2,3 km/h (1 Bft) 97,83 %
14.08.2018 01:38 16,9 C 16,1 C 16,1 C 94 % 1007,6 hPa 0,0 l/m 0 min 0 min 0 W/m 4,5 km/h (1 Bft) 97,87 %
14.08.2018 01:40 16,9 C 16,1 C 16,1 C 94 % 1007,6 hPa 0,0 l/m 0 min 0 min 0 W/m 2,3 km/h (1 Bft) 97,87 %
14.08.2018 01:42 16,9 C 16,1 C 16,1 C 94 % 1007,6 hPa 0,0 l/m 0 min 0 min 0 W/m 6,8 km/h (2 Bft) 97,87 %
14.08.2018 01:44 16,9 C 16,1 C 16,1 C 94 % 1007,7 hPa 0,0 l/m 0 min 0 min 0 W/m 4,5 km/h (1 Bft) 93,62 %
14.08.2018 01:46 16,9 C 16,1 C 16,1 C 94 % 1007,7 hPa 0,0 l/m 0 min 0 min 0 W/m 6,8 km/h (2 Bft) 97,87 %
14.08.2018 01:48 16,9 C 16,1 C 16,1 C 94 % 1007,7 hPa 0,0 l/m 0 min 0 min 0 W/m 0,0 km/h (0 Bft) 97,83 %
14.08.2018 01:50 16,9 C 16,1 C 16,1 C 94 % 1007,8 hPa 0,0 l/m 0 min 0 min 0 W/m 2,3 km/h (1 Bft) 95,74 %
14.08.2018 01:52 16,9 C 16,1 C 16,1 C 94 % 1007,8 hPa 0,0 l/m 0 min 0 min 0 W/m 2,3 km/h (1 Bft) 97,87 %
14.08.2018 01:54 16,8 C 16,1 C 16,1 C 94 % 1007,7 hPa 0,0 l/m 0 min 0 min 0 W/m 2,3 km/h (1 Bft) 95,74 %
14.08.2018 01:56 16,8 C 16,1 C 16,1 C 95 % 1007,8 hPa 0,0 l/m 0 min 0 min 0 W/m 4,5 km/h (1 Bft) 97,87 %
14.08.2018 01:58 16,9 C 16,1 C 16,1 C 95 % 1007,8 hPa 0,0 l/m 0 min 0 min 0 W/m 6,8 km/h (2 Bft) 93,62 %
14.08.2018 02:00 16,8 C 16,1 C 16,1 C 95 % 1007,7 hPa 0,0 l/m 0 min 0 min 0 W/m 2,3 km/h (1 Bft) 97,83 %
14.08.2018 02:02 16,9 C 16,1 C 16,1 C 95 % 1007,8 hPa 0,0 l/m 0 min 0 min 0 W/m 2,3 km/h (1 Bft) 93,62 %
14.08.2018 02:04 16,8 C 16,1 C 16,1 C 95 % 1007,8 hPa 0,0 l/m 0 min 0 min 0 W/m 4,5 km/h (1 Bft) 97,87 %
14.08.2018 02:06 16,8 C 16,1 C 16,1 C 95 % 1007,8 hPa 0,0 l/m 0 min 0 min 0 W/m 2,3 km/h (1 Bft) 95,74 %
14.08.2018 02:08 16,8 C 16,1 C 16,1 C 95 % 1007,8 hPa 0,0 l/m 0 min 0 min 0 W/m 4,5 km/h (1 Bft) 95,74 %
14.08.2018 02:10 16,8 C 16,1 C 16,1 C 95 % 1007,8 hPa 0,0 l/m 0 min 0 min 0 W/m 2,3 km/h (1 Bft) 95,74 %
14.08.2018 02:12 16,8 C 16,1 C 16,1 C 95 % 1007,8 hPa 0,0 l/m 0 min 0 min 0 W/m 2,3 km/h (1 Bft) 95,65 %
14.08.2018 02:14 16,8 C 16,1 C 16,1 C 95 % 1007,8 hPa 0,0 l/m 0 min 0 min 0 W/m 2,3 km/h (1 Bft) 97,87 %
14.08.2018 02:16 16,8 C 16,1 C 16,1 C 95 % 1007,7 hPa 0,0 l/m 0 min 0 min 0 W/m 2,3 km/h (1 Bft) 97,87 %
14.08.2018 02:18 16,8 C 16,1 C 16,1 C 95 % 1007,8 hPa 0,0 l/m 0 min 0 min 0 W/m 2,3 km/h (1 Bft) 95,74 %
14.08.2018 02:20 16,8 C 16,1 C 16,1 C 95 % 1007,8 hPa 0,0 l/m 0 min 0 min 0 W/m 0,0 km/h (0 Bft) 97,87 %
14.08.2018 02:22 16,8 C 16,1 C 16,1 C 95 % 1007,8 hPa 0,0 l/m 0 min 0 min 0 W/m 0,0 km/h (0 Bft) 95,65 %
14.08.2018 02:24 16,8 C 16,1 C 16,1 C 95 % 1007,8 hPa 0,0 l/m 0 min 0 min 0 W/m 4,5 km/h (1 Bft) 97,87 %
14.08.2018 02:26 16,8 C 16,1 C 16,1 C 95 % 1007,8 hPa 0,0 l/m 0 min 0 min 0 W/m 4,5 km/h (1 Bft) 97,87 %
14.08.2018 02:28 16,8 C 16,1 C 16,1 C 95 % 1007,8 hPa 0,0 l/m 0 min 0 min 0 W/m 4,5 km/h (1 Bft) 93,62 %
14.08.2018 02:30 16,8 C 16,1 C 16,1 C 95 % 1007,8 hPa 0,0 l/m 0 min 0 min 0 W/m 9,0 km/h (2 Bft) 95,74 %
14.08.2018 02:32 16,8 C 16,1 C 16,1 C 95 % 1007,7 hPa 0,0 l/m 0 min 0 min 0 W/m 6,8 km/h (2 Bft) 97,87 %
14.08.2018 02:34 16,8 C 16,1 C 16,1 C 95 % 1007,7 hPa 0,0 l/m 0 min 0 min 0 W/m 4,5 km/h (1 Bft) 97,83 %
14.08.2018 02:36 16,8 C 16,1 C 16,1 C 95 % 1007,7 hPa 0,0 l/m 0 min 0 min 0 W/m 4,5 km/h (1 Bft) 97,87 %
14.08.2018 02:38 16,8 C 16,1 C 16,1 C 95 % 1007,7 hPa 0,0 l/m 0 min 0 min 0 W/m 2,3 km/h (1 Bft) 95,74 %
14.08.2018 02:40 16,8 C 16,7 C 16,1 C 95 % 1007,8 hPa 0,0 l/m 0 min 0 min 0 W/m 4,5 km/h (1 Bft) 97,87 %
14.08.2018 02:42 16,9 C 16,7 C 16,1 C 95 % 1007,8 hPa 0,0 l/m 0 min 0 min 0 W/m 6,8 km/h (2 Bft) 97,87 %
14.08.2018 02:44 16,9 C 16,7 C 16,1 C 95 % 1007,8 hPa 0,0 l/m 0 min 0 min 0 W/m 4,5 km/h (1 Bft) 97,87 %
14.08.2018 02:46 16,9 C 16,7 C 16,1 C 95 % 1007,8 hPa 0,0 l/m 0 min 0 min 0 W/m 2,3 km/h (1 Bft) 95,65 %
14.08.2018 02:48 16,9 C 16,7 C 16,1 C 95 % 1007,8 hPa 0,0 l/m 0 min 0 min 0 W/m 4,5 km/h (1 Bft) 95,74 %
14.08.2018 02:50 16,9 C 16,7 C 16,1 C 95 % 1007,8 hPa 0,0 l/m 0 min 0 min 0 W/m 2,3 km/h (1 Bft) 97,87 %
14.08.2018 02:52 16,9 C 16,7 C 16,1 C 95 % 1007,8 hPa 0,0 l/m 0 min 0 min 0 W/m 6,8 km/h (2 Bft) 97,87 %
14.08.2018 02:54 16,9 C 16,7 C 16,1 C 95 % 1007,7 hPa 0,0 l/m 0 min 0 min 0 W/m 4,5 km/h (1 Bft) 97,87 %
14.08.2018 02:56 16,9 C 16,7 C 16,1 C 95 % 1007,7 hPa 0,0 l/m 0 min 0 min 0 W/m 6,8 km/h (2 Bft) 97,87 %
14.08.2018 02:58 16,9 C 16,7 C 16,1 C 95 % 1007,8 hPa 0,0 l/m 0 min 0 min 0 W/m 4,5 km/h (1 Bft) 97,83 %
14.08.2018 03:00 16,9 C 16,7 C 16,1 C 95 % 1007,8 hPa 0,0 l/m 0 min 0 min 0 W/m 2,3 km/h (1 Bft) 93,62 %
14.08.2018 03:02 16,9 C 16,7 C 16,1 C 95 % 1007,8 hPa 0,0 l/m 0 min 0 min 0 W/m 4,5 km/h (1 Bft) 97,87 %
14.08.2018 03:04 16,9 C 16,7 C 16,1 C 95 % 1007,7 hPa 0,0 l/m 0 min 0 min 0 W/m 6,8 km/h (2 Bft) 97,87 %
14.08.2018 03:06 16,9 C 16,7 C 16,1 C 95 % 1007,7 hPa 0,0 l/m 0 min 0 min 0 W/m 4,5 km/h (1 Bft) 98,21 %
14.08.2018 03:08 16,9 C 16,7 C 16,1 C 95 % 1007,7 hPa 0,0 l/m 0 min 0 min 0 W/m 4,5 km/h (1 Bft) 97,87 %
14.08.2018 03:10 16,9 C 16,7 C 16,1 C 95 % 1007,8 hPa 0,0 l/m 0 min 0 min 0 W/m 4,5 km/h (1 Bft) 97,87 %
14.08.2018 03:12 16,9 C 16,7 C 16,1 C 95 % 1007,8 hPa 0,0 l/m 0 min 0 min 0 W/m 4,5 km/h (1 Bft) 95,74 %
14.08.2018 03:14 16,9 C 16,7 C 16,1 C 95 % 1007,8 hPa 0,0 l/m 0 min 0 min 0 W/m 4,5 km/h (1 Bft) 95,74 %
14.08.2018 03:16 16,9 C 16,7 C 16,1 C 95 % 1007,9 hPa 0,0 l/m 0 min 0 min 0 W/m 6,8 km/h (2 Bft) 97,83 %
14.08.2018 03:18 17,0 C 16,7 C 16,1 C 95 % 1007,9 hPa 0,0 l/m 0 min 0 min 0 W/m 6,8 km/h (2 Bft) 97,87 %
14.08.2018 03:20 17,0 C 16,7 C 16,1 C 95 % 1007,9 hPa 0,0 l/m 0 min 0 min 0 W/m 4,5 km/h (1 Bft) 95,74 %
14.08.2018 03:22 17,0 C 16,7 C 16,1 C 95 % 1007,9 hPa 0,0 l/m 0 min 0 min 0 W/m 6,8 km/h (2 Bft) 97,92 %
14.08.2018 03:24 17,0 C 16,7 C 16,1 C 95 % 1007,9 hPa 0,0 l/m 0 min 0 min 0 W/m 4,5 km/h (1 Bft) 97,87 %
14.08.2018 03:26 17,0 C 16,7 C 16,1 C 95 % 1007,9 hPa 0,0 l/m 0 min 0 min 0 W/m 6,8 km/h (2 Bft) 95,65 %
14.08.2018 03:28 17,0 C 16,7 C 16,1 C 95 % 1007,9 hPa 0,0 l/m 0 min 0 min 0 W/m 4,5 km/h (1 Bft) 97,87 %
14.08.2018 03:30 17,0 C 16,7 C 16,1 C 95 % 1007,9 hPa 0,0 l/m 0 min 0 min 0 W/m 2,3 km/h (1 Bft) 95,74 %
14.08.2018 03:32 17,0 C 16,7 C 16,1 C 95 % 1007,9 hPa 0,0 l/m 0 min 0 min 0 W/m 2,3 km/h (1 Bft) 97,92 %
14.08.2018 03:34 17,0 C 16,7 C 16,1 C 95 % 1007,9 hPa 0,0 l/m 0 min 0 min 0 W/m 6,8 km/h (2 Bft) 97,87 %
14.08.2018 03:36 17,0 C 16,7 C 16,1 C 95 % 1008,0 hPa 0,0 l/m 0 min 0 min 0 W/m 2,3 km/h (1 Bft) 97,87 %
14.08.2018 03:38 17,0 C 16,7 C 16,1 C 95 % 1008,0 hPa 0,0 l/m 0 min 0 min 0 W/m 9,0 km/h (2 Bft) 97,83 %
14.08.2018 03:40 17,1 C 16,7 C 16,1 C 95 % 1008,0 hPa 0,0 l/m 0 min 0 min 0 W/m 4,5 km/h (1 Bft) 97,87 %
14.08.2018 03:42 17,1 C 16,7 C 16,1 C 95 % 1008,0 hPa 0,0 l/m 0 min 0 min 0 W/m 4,5 km/h (1 Bft) 97,87 %
14.08.2018 03:44 17,1 C 16,7 C 16,1 C 95 % 1008,0 hPa 0,0 l/m 0 min 0 min 0 W/m 4,5 km/h (1 Bft) 97,87 %
14.08.2018 03:46 17,1 C 16,7 C 16,1 C 95 % 1008,0 hPa 0,0 l/m 0 min 0 min 0 W/m 4,5 km/h (1 Bft) 97,87 %
14.08.2018 03:48 17,1 C 16,7 C 16,1 C 95 % 1008,0 hPa 0,0 l/m 0 min 0 min 0 W/m 4,5 km/h (1 Bft) 97,87 %
14.08.2018 03:50 17,1 C 16,7 C 16,1 C 95 % 1008,0 hPa 0,0 l/m 0 min 0 min 0 W/m 6,8 km/h (2 Bft) 100,00 %
14.08.2018 03:52 17,1 C 16,7 C 16,1 C 95 % 1007,9 hPa 0,0 l/m 0 min 0 min 0 W/m 2,3 km/h (1 Bft) 97,87 %
14.08.2018 03:54 17,1 C 16,7 C 16,1 C 95 % 1008,0 hPa 0,0 l/m 0 min 0 min 0 W/m 2,3 km/h (1 Bft) 100,00 %
14.08.2018 03:56 17,1 C 16,7 C 16,1 C 95 % 1008,0 hPa 0,0 l/m 0 min 0 min 0 W/m 4,5 km/h (1 Bft) 97,87 %
14.08.2018 03:58 17,1 C 16,7 C 16,1 C 95 % 1008,0 hPa 0,0 l/m 0 min 0 min 0 W/m 4,5 km/h (1 Bft) 100,00 %
14.08.2018 04:00 17,1 C 16,7 C 16,1 C 95 % 1008,0 hPa 0,0 l/m 0 min 0 min 0 W/m 6,8 km/h (2 Bft) 100,00 %
14.08.2018 04:02 17,1 C 16,7 C 16,1 C 95 % 1008,0 hPa 0,0 l/m 0 min 0 min 0 W/m 0,0 km/h (0 Bft) 100,00 %
14.08.2018 04:04 17,1 C 16,7 C 16,1 C 95 % 1008,0 hPa 0,0 l/m 0 min 0 min 0 W/m 6,8 km/h (2 Bft) 97,87 %
14.08.2018 04:06 17,1 C 16,7 C 16,1 C 95 % 1008,0 hPa 0,0 l/m 0 min 0 min 0 W/m 2,3 km/h (1 Bft) 97,87 %
14.08.2018 04:08 17,1 C 16,7 C 16,1 C 95 % 1008,1 hPa 0,0 l/m 0 min 0 min 0 W/m 4,5 km/h (1 Bft) 100,00 %
14.08.2018 04:10 17,1 C 16,7 C 16,1 C 95 % 1008,0 hPa 0,0 l/m 0 min 0 min 0 W/m 4,5 km/h (1 Bft) 100,00 %
14.08.2018 04:12 17,1 C 16,7 C 16,1 C 95 % 1008,1 hPa 0,0 l/m 0 min 0 min 0 W/m 4,5 km/h (1 Bft) 97,87 %
14.08.2018 04:14 17,1 C 16,7 C 16,1 C 94 % 1008,1 hPa 0,0 l/m 0 min 0 min 0 W/m 6,8 km/h (2 Bft) 100,00 %
14.08.2018 04:16 17,1 C 16,7 C 16,1 C 94 % 1008,0 hPa 0,0 l/m 0 min 0 min 0 W/m 2,3 km/h (1 Bft) 100,00 %
14.08.2018 04:18 17,1 C 16,7 C 16,1 C 94 % 1008,0 hPa 0,0 l/m 0 min 0 min 0 W/m 4,5 km/h (1 Bft) 100,00 %
14.08.2018 04:20 17,1 C 16,7 C 16,1 C 94 % 1008,2 hPa 0,0 l/m 0 min 0 min 0 W/m 9,0 km/h (2 Bft) 100,00 %
14.08.2018 04:22 17,1 C 16,7 C 16,1 C 94 % 1008,2 hPa 0,0 l/m 0 min 0 min 0 W/m 6,8 km/h (2 Bft) 100,00 %
14.08.2018 04:24 17,1 C 16,7 C 16,1 C 94 % 1008,1 hPa 0,0 l/m 0 min 0 min 0 W/m 2,3 km/h (1 Bft) 100,00 %
14.08.2018 04:26 17,1 C 16,7 C 16,1 C 94 % 1008,2 hPa 0,0 l/m 0 min 0 min 0 W/m 2,3 km/h (1 Bft) 100,00 %
14.08.2018 04:28 17,1 C 16,7 C 16,1 C 94 % 1008,1 hPa 0,0 l/m 0 min 0 min 0 W/m 4,5 km/h (1 Bft) 97,87 %
14.08.2018 04:30 17,1 C 16,7 C 16,1 C 94 % 1008,2 hPa 0,0 l/m 0 min 0 min 0 W/m 2,3 km/h (1 Bft) 100,00 %
14.08.2018 04:32 17,1 C 16,7 C 16,1 C 94 % 1008,2 hPa 0,0 l/m 0 min 0 min 0 W/m 6,8 km/h (2 Bft) 100,00 %
14.08.2018 04:34 17,1 C 16,7 C 16,1 C 94 % 1008,2 hPa 0,0 l/m 0 min 0 min 0 W/m 4,5 km/h (1 Bft) 97,87 %
14.08.2018 04:36 17,1 C 16,7 C 16,1 C 94 % 1008,2 hPa 0,0 l/m 0 min 0 min 0 W/m 6,8 km/h (2 Bft) 100,00 %
14.08.2018 04:38 17,1 C 16,7 C 16,1 C 94 % 1008,2 hPa 0,0 l/m 0 min 0 min 0 W/m 4,5 km/h (1 Bft) 100,00 %
14.08.2018 04:40 17,1 C 16,7 C 16,1 C 94 % 1008,2 hPa 0,0 l/m 0 min 0 min 0 W/m 4,5 km/h (1 Bft) 100,00 %
14.08.2018 04:42 17,1 C 16,7 C 16,1 C 94 % 1008,2 hPa 0,0 l/m 0 min 0 min 0 W/m 4,5 km/h (1 Bft) 100,00 %
14.08.2018 04:44 17,1 C 16,7 C 16,1 C 94 % 1008,2 hPa 0,0 l/m 0 min 0 min 0 W/m 4,5 km/h (1 Bft) 100,00 %
14.08.2018 04:46 17,1 C 16,7 C 16,1 C 94 % 1008,2 hPa 0,0 l/m 0 min 0 min 0 W/m 4,5 km/h (1 Bft) 97,87 %
14.08.2018 04:48 17,1 C 16,7 C 16,1 C 94 % 1008,2 hPa 0,0 l/m 0 min 0 min 0 W/m 6,8 km/h (2 Bft) 97,87 %
14.08.2018 04:50 17,1 C 16,7 C 16,1 C 94 % 1008,3 hPa 0,0 l/m 0 min 0 min 0 W/m 6,8 km/h (2 Bft) 93,62 %
14.08.2018 04:52 17,1 C 16,7 C 16,1 C 94 % 1008,2 hPa 0,0 l/m 0 min 0 min 0 W/m 4,5 km/h (1 Bft) 94,29 %
14.08.2018 04:54 17,1 C 16,7 C 16,1 C 94 % 1008,2 hPa 0,0 l/m 0 min 0 min 0 W/m 4,5 km/h (1 Bft) 95,65 %
14.08.2018 04:56 17,1 C 16,7 C 16,1 C 94 % 1008,2 hPa 0,0 l/m 0 min 0 min 0 W/m 4,5 km/h (1 Bft) 95,74 %
14.08.2018 04:58 17,1 C 16,7 C 16,1 C 94 % 1008,2 hPa 0,0 l/m 0 min 0 min 0 W/m 9,0 km/h (2 Bft) 97,87 %
14.08.2018 05:00 17,1 C 16,7 C 16,1 C 94 % 1008,2 hPa 0,0 l/m 0 min 0 min 0 W/m 9,0 km/h (2 Bft) 95,74 %
14.08.2018 05:02 17,1 C 16,7 C 16,1 C 94 % 1008,2 hPa 0,0 l/m 0 min 0 min 0 W/m 6,8 km/h (2 Bft) 95,74 %
14.08.2018 05:04 17,1 C 16,7 C 16,1 C 94 % 1008,2 hPa 0,0 l/m 0 min 0 min 0 W/m 9,0 km/h (2 Bft) 91,49 %
14.08.2018 05:06 17,1 C 16,7 C 16,1 C 94 % 1008,2 hPa 0,0 l/m 0 min 0 min 0 W/m 6,8 km/h (2 Bft) 95,74 %
14.08.2018 05:08 17,1 C 16,7 C 16,1 C 94 % 1008,2 hPa 0,0 l/m 0 min 0 min 0 W/m 4,5 km/h (1 Bft) 97,83 %
14.08.2018 05:10 17,1 C 16,7 C 16,1 C 93 % 1008,2 hPa 0,0 l/m 0 min 0 min 0 W/m 4,5 km/h (1 Bft) 95,74 %
14.08.2018 05:12 17,1 C 16,7 C 16,1 C 93 % 1008,3 hPa 0,0 l/m 0 min 0 min 0 W/m 6,8 km/h (2 Bft) 93,62 %
14.08.2018 05:14 17,1 C 16,7 C 16,1 C 93 % 1008,3 hPa 0,0 l/m 0 min 0 min 0 W/m 4,5 km/h (1 Bft) 93,62 %
14.08.2018 05:16 17,1 C 16,7 C 16,1 C 93 % 1008,3 hPa 0,0 l/m 0 min 0 min 0 W/m 4,5 km/h (1 Bft) 95,74 %
14.08.2018 05:18 17,1 C 16,7 C 16,1 C 93 % 1008,3 hPa 0,0 l/m 0 min 0 min 0 W/m 4,5 km/h (1 Bft) 95,65 %
14.08.2018 05:20 17,1 C 16,7 C 16,1 C 93 % 1008,4 hPa 0,0 l/m 0 min 0 min 0 W/m 6,8 km/h (2 Bft) 94,92 %
14.08.2018 05:22 17,1 C 16,7 C 16,1 C 93 % 1008,3 hPa 0,0 l/m 0 min 0 min 0 W/m 6,8 km/h (2 Bft) 94,29 %
14.08.2018 05:24 17,1 C 16,7 C 16,1 C 93 % 1008,4 hPa 0,0 l/m 0 min 0 min 0 W/m 4,5 km/h (1 Bft) 95,74 %
14.08.2018 05:26 17,1 C 16,7 C 16,1 C 93 % 1008,3 hPa 0,0 l/m 0 min 0 min 0 W/m 4,5 km/h (1 Bft) 95,74 %
14.08.2018 05:28 17,1 C 16,7 C 16,1 C 93 % 1008,3 hPa 0,0 l/m 0 min 0 min 0 W/m 2,3 km/h (1 Bft) 95,74 %
14.08.2018 05:30 17,1 C 16,7 C 16,1 C 93 % 1008,4 hPa 0,0 l/m 0 min 0 min 0 W/m 4,5 km/h (1 Bft) 95,65 %
14.08.2018 05:32 17,1 C 16,7 C 16,1 C 93 % 1008,3 hPa 0,0 l/m 0 min 0 min 0 W/m 9,0 km/h (2 Bft) 95,74 %
14.08.2018 05:34 17,1 C 16,7 C 16,1 C 93 % 1008,4 hPa 0,0 l/m 0 min 0 min 0 W/m 4,5 km/h (1 Bft) 95,74 %
14.08.2018 05:35 17,1 C 16,7 C 16,1 C 93 % 1008,4 hPa 0,0 l/m 0 min 0 min 0 W/m 9,0 km/h (2 Bft) 98,25 %
14.08.2018 05:40 17,1 C 16,7 C 16,1 C 93 % 1008,4 hPa 0,0 l/m 0 min 0 min 0 W/m 9,0 km/h (2 Bft) 100,00 %
14.08.2018 05:42 17,1 C 16,7 C 16,1 C 93 % 1008,5 hPa 0,0 l/m 0 min 0 min 0 W/m 4,5 km/h (1 Bft) 97,87 %
14.08.2018 05:44 17,1 C 16,7 C 16,1 C 93 % 1008,3 hPa 0,0 l/m 0 min 0 min 0 W/m 4,5 km/h (1 Bft) 91,49 %
14.08.2018 05:46 17,1 C 16,7 C 16,1 C 93 % 1008,4 hPa 0,0 l/m 0 min 0 min 0 W/m 6,8 km/h (2 Bft) 93,62 %
14.08.2018 05:48 17,1 C 16,7 C 16,1 C 93 % 1008,4 hPa 0,0 l/m 0 min 0 min 0 W/m 6,8 km/h (2 Bft) 95,74 %
14.08.2018 05:50 17,1 C 16,7 C 16,1 C 93 % 1008,4 hPa 0,0 l/m 0 min 0 min 0 W/m 2,3 km/h (1 Bft) 93,62 %
14.08.2018 05:52 17,1 C 16,7 C 16,1 C 93 % 1008,5 hPa 0,0 l/m 0 min 0 min 0 W/m 11,3 km/h (2 Bft) 93,48 %
14.08.2018 05:54 17,1 C 16,7 C 16,1 C 93 % 1008,5 hPa 0,0 l/m 0 min 0 min 0 W/m 4,5 km/h (1 Bft) 95,74 %
14.08.2018 05:56 17,1 C 16,7 C 16,1 C 93 % 1008,5 hPa 0,0 l/m 0 min 0 min 0 W/m 2,3 km/h (1 Bft) 95,74 %
14.08.2018 05:58 17,1 C 16,7 C 16,1 C 93 % 1008,6 hPa 0,0 l/m 0 min 0 min 0 W/m 4,5 km/h (1 Bft) 95,74 %
14.08.2018 06:00 17,1 C 16,7 C 16,1 C 93 % 1008,5 hPa 0,0 l/m 0 min 0 min 0 W/m 4,5 km/h (1 Bft) 95,74 %
14.08.2018 06:02 17,1 C 16,7 C 16,1 C 93 % 1008,5 hPa 0,0 l/m 0 min 0 min 0 W/m 6,8 km/h (2 Bft) 93,62 %
14.08.2018 06:04 17,1 C 16,7 C 16,1 C 93 % 1008,5 hPa 0,0 l/m 0 min 0 min 0 W/m 6,8 km/h (2 Bft) 97,83 %
14.08.2018 06:06 17,1 C 16,7 C 16,1 C 93 % 1008,6 hPa 0,0 l/m 0 min 0 min 0 W/m 9,0 km/h (2 Bft) 95,74 %
14.08.2018 06:08 17,1 C 16,7 C 16,1 C 93 % 1008,6 hPa 0,0 l/m 0 min 0 min 0 W/m 4,5 km/h (1 Bft) 95,74 %
14.08.2018 06:10 17,1 C 16,7 C 16,1 C 93 % 1008,6 hPa 0,0 l/m 0 min 0 min 0 W/m 9,0 km/h (2 Bft) 95,74 %
14.08.2018 06:12 17,1 C 16,7 C 16,1 C 93 % 1008,7 hPa 0,0 l/m 0 min 0 min 0 W/m 4,5 km/h (1 Bft) 97,87 %
14.08.2018 06:14 17,1 C 16,7 C 16,1 C 93 % 1008,6 hPa 0,0 l/m 0 min 0 min 0 W/m 4,5 km/h (1 Bft) 97,87 %
14.08.2018 06:16 17,1 C 16,7 C 16,1 C 93 % 1008,7 hPa 0,0 l/m 0 min 0 min 0 W/m 6,8 km/h (2 Bft) 97,83 %
14.08.2018 06:18 17,0 C 16,7 C 16,1 C 93 % 1008,6 hPa 0,0 l/m 0 min 0 min 0 W/m 9,0 km/h (2 Bft) 97,87 %
14.08.2018 06:20 17,0 C 16,7 C 16,1 C 93 % 1008,7 hPa 0,0 l/m 0 min 0 min 0 W/m 4,5 km/h (1 Bft) 97,87 %
14.08.2018 06:22 17,0 C 16,7 C 16,1 C 93 % 1008,7 hPa 0,0 l/m 0 min 0 min 0 W/m 2,3 km/h (1 Bft) 95,74 %
14.08.2018 06:24 17,0 C 16,7 C 16,1 C 93 % 1008,8 hPa 0,0 l/m 0 min 0 min 0 W/m 6,8 km/h (2 Bft) 95,74 %
14.08.2018 06:26 17,0 C 16,7 C 16,1 C 93 % 1008,7 hPa 0,0 l/m 0 min 0 min 0 W/m 6,8 km/h (2 Bft) 95,74 %
14.08.2018 06:28 17,0 C 16,7 C 16,1 C 93 % 1008,7 hPa 0,0 l/m 0 min 0 min 0 W/m 6,8 km/h (2 Bft) 97,83 %
14.08.2018 06:30 17,0 C 16,7 C 16,1 C 93 % 1008,7 hPa 0,0 l/m 0 min 0 min 0 W/m 6,8 km/h (2 Bft) 100,00 %
14.08.2018 06:32 17,0 C 16,7 C 16,1 C 93 % 1008,7 hPa 0,0 l/m 0 min 0 min 0 W/m 6,8 km/h (2 Bft) 100,00 %
14.08.2018 06:34 17,0 C 16,7 C 16,1 C 93 % 1008,8 hPa 0,0 l/m 0 min 0 min 4 W/m 6,8 km/h (2 Bft) 100,00 %
14.08.2018 06:36 17,0 C 16,7 C 16,1 C 93 % 1008,8 hPa 0,0 l/m 0 min 0 min 5 W/m 6,8 km/h (2 Bft) 100,00 %
14.08.2018 06:38 17,0 C 16,7 C 16,1 C 93 % 1008,8 hPa 0,0 l/m 0 min 0 min 6 W/m 6,8 km/h (2 Bft) 95,74 %
14.08.2018 06:40 17,0 C 16,7 C 16,1 C 93 % 1008,8 hPa 0,0 l/m 0 min 0 min 7 W/m 6,8 km/h (2 Bft) 100,00 %
14.08.2018 06:42 17,0 C 16,7 C 16,1 C 93 % 1008,8 hPa 0,0 l/m 0 min 0 min 7 W/m 6,8 km/h (2 Bft) 97,87 %
14.08.2018 06:44 17,0 C 16,7 C 16,1 C 93 % 1008,9 hPa 0,0 l/m 0 min 0 min 7 W/m 9,0 km/h (2 Bft) 100,00 %
14.08.2018 06:46 17,0 C 16,7 C 16,1 C 93 % 1009,0 hPa 0,0 l/m 0 min 0 min 7 W/m 9,0 km/h (2 Bft) 100,00 %
14.08.2018 06:48 17,0 C 16,7 C 16,1 C 93 % 1009,0 hPa 0,0 l/m 0 min 0 min 7 W/m 2,3 km/h (1 Bft) 100,00 %
14.08.2018 06:50 17,0 C 16,1 C 16,1 C 94 % 1009,0 hPa 0,0 l/m 0 min 2 min 7 W/m 4,5 km/h (1 Bft) 100,00 %
14.08.2018 06:52 17,0 C 16,1 C 16,1 C 94 % 1009,1 hPa 0,0 l/m 0 min 0 min 7 W/m 6,8 km/h (2 Bft) 100,00 %
14.08.2018 06:54 17,0 C 16,1 C 16,1 C 94 % 1009,0 hPa 0,0 l/m 0 min 0 min 7 W/m 4,5 km/h (1 Bft) 97,87 %
14.08.2018 06:56 17,0 C 16,1 C 16,1 C 94 % 1009,0 hPa 0,0 l/m 0 min 0 min 10 W/m 6,8 km/h (2 Bft) 100,00 %
14.08.2018 06:58 17,0 C 16,1 C 16,1 C 94 % 1009,1 hPa 0,0 l/m 0 min 0 min 13 W/m 4,5 km/h (1 Bft) 100,00 %
14.08.2018 07:00 17,0 C 16,1 C 16,1 C 94 % 1009,2 hPa 0,0 l/m 0 min 0 min 13 W/m 6,8 km/h (2 Bft) 100,00 %
14.08.2018 07:02 17,0 C 16,1 C 16,1 C 94 % 1009,2 hPa 0,0 l/m 0 min 2 min 13 W/m 4,5 km/h (1 Bft) 100,00 %
14.08.2018 07:04 17,0 C 16,1 C 16,1 C 94 % 1009,2 hPa 0,0 l/m 0 min 2 min 18 W/m 4,5 km/h (1 Bft) 100,00 %
14.08.2018 07:06 17,0 C 15,6 C 15,6 C 94 % 1009,3 hPa 0,0 l/m 0 min 2 min 19 W/m 4,5 km/h (1 Bft) 100,00 %
14.08.2018 07:08 17,0 C 15,6 C 15,6 C 94 % 1009,3 hPa 0,0 l/m 0 min 2 min 20 W/m 6,8 km/h (2 Bft) 100,00 %
14.08.2018 07:10 17,0 C 15,6 C 15,6 C 94 % 1009,3 hPa 0,2 l/m 0 min 2 min 16 W/m 4,5 km/h (1 Bft) 100,00 %
14.08.2018 07:12 17,0 C 15,6 C 15,0 C 94 % 1009,4 hPa 0,0 l/m 0 min 2 min 12 W/m 9,0 km/h (2 Bft) 100,00 %
14.08.2018 07:14 17,0 C 15,6 C 15,0 C 94 % 1009,4 hPa 0,0 l/m 0 min 2 min 13 W/m 6,8 km/h (2 Bft) 100,00 %
14.08.2018 07:16 16,9 C 15,6 C 15,0 C 94 % 1009,4 hPa 0,2 l/m 0 min 2 min 15 W/m 4,5 km/h (1 Bft) 100,00 %
14.08.2018 07:18 16,9 C 15,6 C 15,0 C 94 % 1009,4 hPa 0,0 l/m 0 min 2 min 14 W/m 6,8 km/h (2 Bft) 95,65 %
14.08.2018 07:20 16,9 C 15,6 C 15,0 C 94 % 1009,4 hPa 0,0 l/m 0 min 2 min 15 W/m 4,5 km/h (1 Bft) 100,00 %
14.08.2018 07:22 16,9 C 15,6 C 15,0 C 94 % 1009,4 hPa 0,2 l/m 0 min 2 min 14 W/m 4,5 km/h (1 Bft) 100,00 %
14.08.2018 07:24 16,9 C 15,6 C 15,0 C 94 % 1009,4 hPa 0,0 l/m 0 min 2 min 12 W/m 4,5 km/h (1 Bft) 100,00 %
14.08.2018 07:26 16,9 C 15,6 C 15,0 C 94 % 1009,4 hPa 0,0 l/m 0 min 2 min 15 W/m 4,5 km/h (1 Bft) 100,00 %
14.08.2018 07:28 16,9 C 15,6 C 15,0 C 94 % 1009,5 hPa 0,0 l/m 0 min 2 min 18 W/m 4,5 km/h (1 Bft) 100,00 %
14.08.2018 07:30 16,9 C 15,6 C 15,0 C 94 % 1009,5 hPa 0,0 l/m 0 min 0 min 22 W/m 6,8 km/h (2 Bft) 100,00 %
14.08.2018 07:32 16,8 C 15,6 C 15,0 C 95 % 1009,4 hPa 0,0 l/m 0 min 0 min 21 W/m 4,5 km/h (1 Bft) 100,00 %
14.08.2018 07:34 16,8 C 15,6 C 15,0 C 95 % 1009,5 hPa 0,0 l/m 0 min 0 min 22 W/m 4,5 km/h (1 Bft) 100,00 %
14.08.2018 07:36 16,8 C 15,6 C 15,0 C 95 % 1009,6 hPa 0,0 l/m 0 min 0 min 23 W/m 2,3 km/h (1 Bft) 100,00 %
14.08.2018 07:38 16,8 C 15,6 C 15,0 C 95 % 1009,6 hPa 0,0 l/m 0 min 2 min 23 W/m 4,5 km/h (1 Bft) 97,87 %
14.08.2018 07:40 16,8 C 15,6 C 15,0 C 95 % 1009,6 hPa 0,0 l/m 0 min 2 min 22 W/m 4,5 km/h (1 Bft) 100,00 %
14.08.2018 07:42 16,8 C 15,6 C 15,0 C 95 % 1009,6 hPa 0,0 l/m 0 min 2 min 25 W/m 2,3 km/h (1 Bft) 97,83 %
14.08.2018 07:44 16,8 C 15,6 C 15,0 C 95 % 1009,6 hPa 0,0 l/m 0 min 2 min 27 W/m 6,8 km/h (2 Bft) 100,00 %
14.08.2018 07:46 16,8 C 15,6 C 15,0 C 95 % 1009,6 hPa 0,0 l/m 0 min 2 min 30 W/m 4,5 km/h (1 Bft) 100,00 %
14.08.2018 07:48 16,8 C 15,6 C 15,0 C 95 % 1009,7 hPa 0,0 l/m 0 min 0 min 30 W/m 2,3 km/h (1 Bft) 97,87 %
14.08.2018 07:50 16,8 C 15,6 C 15,0 C 95 % 1009,7 hPa 0,0 l/m 0 min 0 min 24 W/m 4,5 km/h (1 Bft) 100,00 %
14.08.2018 07:52 16,8 C 15,6 C 15,0 C 95 % 1009,7 hPa 0,0 l/m 0 min 0 min 26 W/m 4,5 km/h (1 Bft) 100,00 %
14.08.2018 07:54 16,8 C 15,6 C 15,0 C 95 % 1009,8 hPa 0,0 l/m 0 min 0 min 35 W/m 2,3 km/h (1 Bft) 100,00 %
14.08.2018 07:56 16,7 C 15,6 C 15,0 C 95 % 1009,7 hPa 0,0 l/m 0 min 0 min 45 W/m 6,8 km/h (2 Bft) 95,74 %
14.08.2018 07:58 16,7 C 15,6 C 15,0 C 95 % 1009,7 hPa 0,0 l/m 0 min 0 min 53 W/m 4,5 km/h (1 Bft) 97,87 %
14.08.2018 08:00 16,7 C 15,6 C 15,0 C 95 % 1009,7 hPa 0,2 l/m 0 min 0 min 46 W/m 9,0 km/h (2 Bft) 97,87 %
14.08.2018 08:02 16,7 C 15,6 C 15,0 C 95 % 1009,7 hPa 0,0 l/m 0 min 0 min 44 W/m 4,5 km/h (1 Bft) 100,00 %
14.08.2018 08:04 16,7 C 15,6 C 15,0 C 96 % 1009,8 hPa 0,0 l/m 0 min 0 min 49 W/m 6,8 km/h (2 Bft) 97,83 %
14.08.2018 08:06 16,7 C 15,6 C 15,0 C 96 % 1009,9 hPa 0,0 l/m 0 min 0 min 59 W/m 2,3 km/h (1 Bft) 97,87 %
14.08.2018 08:08 16,7 C 15,6 C 15,6 C 96 % 1009,8 hPa 0,0 l/m 0 min 0 min 79 W/m 2,3 km/h (1 Bft) 100,00 %
14.08.2018 08:10 16,7 C 16,1 C 15,6 C 96 % 1009,8 hPa 0,0 l/m 0 min 0 min 83 W/m 4,5 km/h (1 Bft) 97,87 %
14.08.2018 08:12 16,8 C 16,1 C 15,6 C 96 % 1009,8 hPa 0,0 l/m 0 min 0 min 67 W/m 2,3 km/h (1 Bft) 100,00 %
14.08.2018 08:14 16,8 C 16,1 C 15,6 C 96 % 1009,9 hPa 0,0 l/m 0 min 0 min 54 W/m 2,3 km/h (1 Bft) 95,74 %
14.08.2018 08:16 16,8 C 16,1 C 15,6 C 96 % 1009,9 hPa 0,0 l/m 0 min 0 min 55 W/m 4,5 km/h (1 Bft) 95,65 %
14.08.2018 08:18 16,8 C 16,1 C 15,6 C 96 % 1009,9 hPa 0,0 l/m 0 min 0 min 51 W/m 4,5 km/h (1 Bft) 95,74 %
14.08.2018 08:20 16,8 C 16,1 C 15,6 C 96 % 1010,0 hPa 0,0 l/m 0 min 0 min 52 W/m 2,3 km/h (1 Bft) 95,74 %
14.08.2018 08:22 16,8 C 16,1 C 15,6 C 96 % 1010,0 hPa 0,0 l/m 0 min 0 min 42 W/m 0,0 km/h (0 Bft) 95,74 %
14.08.2018 08:24 16,8 C 16,1 C 15,6 C 96 % 1010,0 hPa 0,0 l/m 0 min 0 min 43 W/m 6,8 km/h (2 Bft) 93,62 %
14.08.2018 08:26 16,8 C 16,1 C 15,6 C 96 % 1010,0 hPa 0,0 l/m 0 min 0 min 39 W/m 6,8 km/h (2 Bft) 91,30 %
14.08.2018 08:28 16,8 C 16,1 C 15,6 C 96 % 1010,0 hPa 0,0 l/m 0 min 0 min 47 W/m 6,8 km/h (2 Bft) 93,62 %
14.08.2018 08:30 16,8 C 16,1 C 15,6 C 96 % 1010,0 hPa 0,0 l/m 0 min 0 min 52 W/m 2,3 km/h (1 Bft) 91,49 %
14.08.2018 08:32 16,8 C 16,1 C 15,6 C 96 % 1010,0 hPa 0,0 l/m 0 min 0 min 85 W/m 9,0 km/h (2 Bft) 93,75 %
14.08.2018 08:34 16,9 C 16,1 C 15,6 C 96 % 1010,0 hPa 0,0 l/m 0 min 0 min 103 W/m 2,3 km/h (1 Bft) 93,62 %
14.08.2018 08:36 16,9 C 16,1 C 15,6 C 97 % 1010,1 hPa 0,0 l/m 0 min 0 min 100 W/m 2,3 km/h (1 Bft) 93,62 %
14.08.2018 08:38 16,9 C 16,1 C 15,6 C 97 % 1010,2 hPa 0,0 l/m 0 min 0 min 88 W/m 4,5 km/h (1 Bft) 93,48 %
14.08.2018 08:40 16,9 C 16,1 C 15,6 C 97 % 1010,2 hPa 0,0 l/m 0 min 0 min 80 W/m 2,3 km/h (1 Bft) 93,62 %
14.08.2018 08:42 16,9 C 16,1 C 15,6 C 97 % 1010,2 hPa 0,0 l/m 0 min 0 min 97 W/m 4,5 km/h (1 Bft) 93,62 %
14.08.2018 08:44 16,9 C 16,1 C 15,6 C 97 % 1010,1 hPa 0,0 l/m 0 min 0 min 111 W/m 2,3 km/h (1 Bft) 93,62 %
14.08.2018 08:46 16,9 C 16,7 C 15,6 C 97 % 1010,2 hPa 0,0 l/m 0 min 0 min 118 W/m 4,5 km/h (1 Bft) 89,36 %
14.08.2018 08:48 17,0 C 16,7 C 15,6 C 97 % 1010,3 hPa 0,0 l/m 0 min 0 min 116 W/m 2,3 km/h (1 Bft) 93,62 %
14.08.2018 08:50 17,0 C 16,7 C 15,6 C 97 % 1010,3 hPa 0,0 l/m 0 min 0 min 112 W/m 2,3 km/h (1 Bft) 93,48 %
14.08.2018 08:52 17,1 C 16,7 C 15,6 C 97 % 1010,3 hPa 0,0 l/m 0 min 0 min 115 W/m 6,8 km/h (2 Bft) 93,62 %
14.08.2018 08:54 17,1 C 16,7 C 15,6 C 97 % 1010,3 hPa 0,0 l/m 0 min 0 min 117 W/m 4,5 km/h (1 Bft) 93,62 %
14.08.2018 08:56 17,1 C 16,7 C 16,1 C 97 % 1010,4 hPa 0,0 l/m 0 min 0 min 114 W/m 4,5 km/h (1 Bft) 93,62 %
14.08.2018 08:58 17,1 C 16,7 C 16,1 C 97 % 1010,4 hPa 0,0 l/m 0 min 0 min 109 W/m 4,5 km/h (1 Bft) 93,62 %
14.08.2018 09:00 17,1 C 16,7 C 16,1 C 97 % 1010,5 hPa 0,0 l/m 0 min 0 min 115 W/m 4,5 km/h (1 Bft) 91,49 %
14.08.2018 09:02 17,2 C 16,7 C 16,1 C 97 % 1010,4 hPa 0,0 l/m 0 min 0 min 113 W/m 6,8 km/h (2 Bft) 89,13 %
14.08.2018 09:04 17,2 C 16,7 C 16,1 C 97 % 1010,5 hPa 0,0 l/m 0 min 0 min 85 W/m 4,5 km/h (1 Bft) 91,49 %
14.08.2018 09:06 17,2 C 16,7 C 16,1 C 97 % 1010,5 hPa 0,0 l/m 0 min 0 min 70 W/m 4,5 km/h (1 Bft) 95,74 %
14.08.2018 09:08 17,2 C 16,7 C 16,1 C 97 % 1010,6 hPa 0,0 l/m 0 min 0 min 49 W/m 4,5 km/h (1 Bft) 93,62 %
14.08.2018 09:10 17,2 C 16,7 C 16,1 C 97 % 1010,6 hPa 0,0 l/m 0 min 0 min 49 W/m 4,5 km/h (1 Bft) 95,74 %
14.08.2018 09:12 17,2 C 16,1 C 16,1 C 97 % 1010,6 hPa 0,0 l/m 0 min 0 min 41 W/m 4,5 km/h (1 Bft) 100,00 %
14.08.2018 09:14 17,2 C 16,1 C 16,1 C 97 % 1010,7 hPa 0,0 l/m 0 min 0 min 47 W/m 4,5 km/h (1 Bft) 100,00 %
14.08.2018 09:16 17,2 C 16,7 C 16,1 C 97 % 1010,7 hPa 0,0 l/m 0 min 0 min 65 W/m 0,0 km/h (0 Bft) 97,87 %
14.08.2018 09:18 17,2 C 16,7 C 16,1 C 97 % 1010,7 hPa 0,0 l/m 0 min 0 min 73 W/m 0,0 km/h (0 Bft) 100,00 %
14.08.2018 09:20 17,2 C 16,7 C 16,1 C 97 % 1010,8 hPa 0,0 l/m 0 min 0 min 66 W/m 0,0 km/h (0 Bft) 97,87 %
14.08.2018 09:22 17,2 C 16,7 C 16,1 C 97 % 1010,8 hPa 0,0 l/m 0 min 0 min 65 W/m 6,8 km/h (2 Bft) 100,00 %
14.08.2018 09:24 17,2 C 16,7 C 16,1 C 97 % 1010,8 hPa 0,0 l/m 0 min 0 min 68 W/m 2,3 km/h (1 Bft) 97,83 %
14.08.2018 09:26 17,2 C 16,7 C 16,1 C 97 % 1010,8 hPa 0,0 l/m 0 min 0 min 67 W/m 2,3 km/h (1 Bft) 97,87 %
14.08.2018 09:28 17,3 C 16,7 C 16,1 C 97 % 1010,9 hPa 0,0 l/m 0 min 0 min 92 W/m 4,5 km/h (1 Bft) 100,00 %
14.08.2018 09:30 17,3 C 16,7 C 16,1 C 97 % 1010,9 hPa 0,0 l/m 0 min 0 min 74 W/m 2,3 km/h (1 Bft) 100,00 %
14.08.2018 09:32 17,3 C 16,7 C 16,1 C 97 % 1010,9 hPa 0,0 l/m 0 min 0 min 74 W/m 2,3 km/h (1 Bft) 100,00 %
14.08.2018 09:34 17,3 C 16,7 C 16,1 C 97 % 1010,9 hPa 0,0 l/m 0 min 0 min 93 W/m 6,8 km/h (2 Bft) 100,00 %
14.08.2018 09:36 17,3 C 16,7 C 16,1 C 97 % 1010,9 hPa 0,0 l/m 0 min 0 min 91 W/m 6,8 km/h (2 Bft) 100,00 %
14.08.2018 09:38 17,3 C 16,7 C 16,1 C 97 % 1011,0 hPa 0,0 l/m 0 min 0 min 119 W/m 6,8 km/h (2 Bft) 97,87 %
14.08.2018 09:40 17,3 C 16,7 C 16,1 C 97 % 1010,9 hPa 0,0 l/m 0 min 0 min 165 W/m 6,8 km/h (2 Bft) 100,00 %
14.08.2018 09:42 17,3 C 17,2 C 16,1 C 97 % 1011,0 hPa 0,0 l/m 0 min 0 min 197 W/m 2,3 km/h (1 Bft) 100,00 %
14.08.2018 09:44 17,4 C 17,2 C 16,1 C 97 % 1011,0 hPa 0,0 l/m 0 min 0 min 196 W/m 6,8 km/h (2 Bft) 100,00 %
14.08.2018 09:46 17,4 C 17,2 C 16,1 C 97 % 1011,0 hPa 0,0 l/m 0 min 0 min 164 W/m 9,0 km/h (2 Bft) 97,87 %
14.08.2018 09:48 17,4 C 17,2 C 16,1 C 97 % 1011,1 hPa 0,0 l/m 0 min 0 min 179 W/m 6,8 km/h (2 Bft) 100,00 %
14.08.2018 09:50 17,4 C 17,2 C 16,7 C 97 % 1011,1 hPa 0,0 l/m 0 min 0 min 188 W/m 6,8 km/h (2 Bft) 100,00 %
14.08.2018 09:52 17,4 C 17,2 C 16,7 C 97 % 1011,1 hPa 0,0 l/m 0 min 0 min 179 W/m 9,0 km/h (2 Bft) 100,00 %
14.08.2018 09:54 17,5 C 17,2 C 16,7 C 97 % 1011,1 hPa 0,0 l/m 0 min 0 min 165 W/m 9,0 km/h (2 Bft) 100,00 %
14.08.2018 09:56 17,5 C 17,2 C 16,7 C 97 % 1011,1 hPa 0,0 l/m 0 min 0 min 141 W/m 4,5 km/h (1 Bft) 100,00 %
14.08.2018 09:58 17,6 C 17,2 C 16,7 C 97 % 1011,1 hPa 0,0 l/m 0 min 0 min 128 W/m 9,0 km/h (2 Bft) 100,00 %
14.08.2018 10:00 17,6 C 16,7 C 16,7 C 97 % 1011,2 hPa 0,0 l/m 0 min 0 min 106 W/m 9,0 km/h (2 Bft) 100,00 %
14.08.2018 10:02 17,6 C 16,7 C 16,1 C 97 % 1011,2 hPa 0,0 l/m 0 min 0 min 91 W/m 9,0 km/h (2 Bft) 100,00 %
14.08.2018 10:04 17,6 C 16,7 C 16,1 C 97 % 1011,2 hPa 0,0 l/m 0 min 0 min 132 W/m 6,8 km/h (2 Bft) 100,00 %
14.08.2018 10:06 17,6 C 17,2 C 16,7 C 97 % 1011,2 hPa 0,0 l/m 0 min 0 min 193 W/m 4,5 km/h (1 Bft) 100,00 %
14.08.2018 10:08 17,6 C 17,2 C 16,7 C 97 % 1011,2 hPa 0,0 l/m 0 min 0 min 210 W/m 9,0 km/h (2 Bft) 100,00 %
14.08.2018 10:10 17,7 C 17,2 C 16,7 C 97 % 1011,2 hPa 0,0 l/m 0 min 0 min 210 W/m 13,5 km/h (3 Bft) 100,00 %
14.08.2018 10:12 17,7 C 17,2 C 16,7 C 97 % 1011,3 hPa 0,0 l/m 0 min 0 min 245 W/m 6,8 km/h (2 Bft) 100,00 %
14.08.2018 10:14 17,7 C 17,8 C 16,7 C 97 % 1011,3 hPa 0,0 l/m 0 min 0 min 245 W/m 6,8 km/h (2 Bft) 100,00 %
14.08.2018 10:16 17,8 C 17,8 C 16,7 C 97 % 1011,3 hPa 0,0 l/m 0 min 0 min 254 W/m 4,5 km/h (1 Bft) 100,00 %
14.08.2018 10:18 17,8 C 17,8 C 16,7 C 97 % 1011,3 hPa 0,0 l/m 0 min 0 min 258 W/m 6,8 km/h (2 Bft) 100,00 %
14.08.2018 10:20 17,9 C 17,8 C 16,7 C 97 % 1011,3 hPa 0,0 l/m 0 min 0 min 260 W/m 9,0 km/h (2 Bft) 100,00 %
14.08.2018 10:22 17,9 C 17,8 C 16,7 C 97 % 1011,3 hPa 0,0 l/m 0 min 0 min 217 W/m 11,3 km/h (2 Bft) 100,00 %
14.08.2018 10:24 17,9 C 18,3 C 16,7 C 97 % 1011,4 hPa 0,0 l/m 0 min 0 min 210 W/m 9,0 km/h (2 Bft) 100,00 %
14.08.2018 10:26 18,0 C 18,3 C 16,7 C 96 % 1011,3 hPa 0,0 l/m 0 min 0 min 225 W/m 11,3 km/h (2 Bft) 100,00 %
14.08.2018 10:28 18,1 C 18,9 C 16,7 C 96 % 1011,3 hPa 0,0 l/m 0 min 0 min 225 W/m 9,0 km/h (2 Bft) 100,00 %
14.08.2018 10:30 18,1 C 18,9 C 17,2 C 96 % 1011,3 hPa 0,0 l/m 2 min 0 min 577 W/m 9,0 km/h (2 Bft) 100,00 %
14.08.2018 10:32 18,2 C 19,4 C 17,2 C 96 % 1011,3 hPa 0,0 l/m 2 min 0 min 585 W/m 11,3 km/h (2 Bft) 100,00 %
14.08.2018 10:34 18,3 C 19,4 C 17,2 C 96 % 1011,3 hPa 0,0 l/m 2 min 0 min 654 W/m 11,3 km/h (2 Bft) 100,00 %
14.08.2018 10:36 18,4 C 18,9 C 17,2 C 96 % 1011,3 hPa 0,0 l/m 2 min 0 min 467 W/m 15,8 km/h (3 Bft) 100,00 %
14.08.2018 10:38 18,6 C 18,9 C 17,2 C 96 % 1011,4 hPa 0,0 l/m 2 min 0 min 317 W/m 6,8 km/h (2 Bft) 100,00 %
14.08.2018 10:40 18,6 C 18,9 C 17,2 C 95 % 1011,4 hPa 0,0 l/m 0 min 0 min 301 W/m 6,8 km/h (2 Bft) 100,00 %
14.08.2018 10:42 18,7 C 19,4 C 17,2 C 95 % 1011,4 hPa 0,0 l/m 0 min 0 min 296 W/m 9,0 km/h (2 Bft) 100,00 %
14.08.2018 10:44 18,8 C 18,9 C 17,2 C 94 % 1011,4 hPa 0,0 l/m 0 min 0 min 192 W/m 9,0 km/h (2 Bft) 100,00 %
14.08.2018 10:46 18,8 C 18,3 C 17,2 C 93 % 1011,4 hPa 0,0 l/m 0 min 0 min 163 W/m 11,3 km/h (2 Bft) 100,00 %
14.08.2018 10:48 18,9 C 18,3 C 17,2 C 93 % 1011,5 hPa 0,0 l/m 0 min 0 min 210 W/m 9,0 km/h (2 Bft) 100,00 %
14.08.2018 10:50 18,9 C 18,3 C 17,2 C 92 % 1011,5 hPa 0,0 l/m 0 min 0 min 189 W/m 11,3 km/h (2 Bft) 100,00 %
14.08.2018 10:52 18,9 C 17,8 C 17,2 C 91 % 1011,5 hPa 0,0 l/m 0 min 0 min 162 W/m 11,3 km/h (2 Bft) 97,87 %
14.08.2018 10:54 19,0 C 17,8 C 17,2 C 90 % 1011,5 hPa 0,0 l/m 0 min 0 min 169 W/m 9,0 km/h (2 Bft) 100,00 %
14.08.2018 10:56 19,1 C 17,8 C 16,7 C 90 % 1011,6 hPa 0,0 l/m 0 min 0 min 183 W/m 11,3 km/h (2 Bft) 97,87 %
14.08.2018 10:58 19,1 C 18,3 C 17,2 C 89 % 1011,6 hPa 0,0 l/m 0 min 0 min 262 W/m 6,8 km/h (2 Bft) 97,87 %
14.08.2018 11:00 19,1 C 18,3 C 17,2 C 89 % 1011,5 hPa 0,0 l/m 0 min 0 min 204 W/m 6,8 km/h (2 Bft) 97,83 %
14.08.2018 11:02 19,1 C 18,3 C 17,2 C 89 % 1011,5 hPa 0,0 l/m 0 min 0 min 152 W/m 9,0 km/h (2 Bft) 97,87 %
14.08.2018 11:04 19,2 C 18,3 C 17,2 C 88 % 1011,5 hPa 0,0 l/m 0 min 0 min 136 W/m 9,0 km/h (2 Bft) 97,87 %
14.08.2018 11:06 19,2 C 18,3 C 17,2 C 88 % 1011,5 hPa 0,0 l/m 0 min 0 min 127 W/m 6,8 km/h (2 Bft) 93,62 %
14.08.2018 11:08 19,2 C 18,3 C 17,2 C 87 % 1011,5 hPa 0,0 l/m 0 min 0 min 120 W/m 6,8 km/h (2 Bft) 95,74 %
14.08.2018 11:10 19,2 C 18,3 C 17,2 C 87 % 1011,6 hPa 0,0 l/m 0 min 0 min 113 W/m 4,5 km/h (1 Bft) 97,87 %
14.08.2018 11:12 19,2 C 18,9 C 17,2 C 87 % 1011,6 hPa 0,0 l/m 0 min 0 min 148 W/m 6,8 km/h (2 Bft) 95,65 %
14.08.2018 11:14 19,3 C 18,9 C 17,2 C 87 % 1011,6 hPa 0,0 l/m 0 min 0 min 203 W/m 9,0 km/h (2 Bft) 95,74 %
14.08.2018 11:16 19,3 C 19,4 C 17,2 C 87 % 1011,6 hPa 0,0 l/m 0 min 0 min 252 W/m 9,0 km/h (2 Bft) 97,87 %
14.08.2018 11:18 19,3 C 20,0 C 17,2 C 87 % 1011,6 hPa 0,0 l/m 0 min 0 min 217 W/m 9,0 km/h (2 Bft) 97,87 %
14.08.2018 11:20 19,3 C 21,7 C 17,8 C 87 % 1011,5 hPa 0,0 l/m 0 min 0 min 164 W/m 6,8 km/h (2 Bft) 95,74 %
14.08.2018 11:22 19,4 C 25,0 C 17,8 C 87 % 1011,6 hPa 0,0 l/m 2 min 0 min 696 W/m 6,8 km/h (2 Bft) 95,74 %
14.08.2018 11:24 19,5 C 26,7 C 18,3 C 87 % 1011,6 hPa 0,0 l/m 2 min 0 min 775 W/m 9,0 km/h (2 Bft) 93,48 %
14.08.2018 11:26 19,6 C 25,0 C 18,9 C 87 % 1011,6 hPa 0,0 l/m 2 min 0 min 468 W/m 4,5 km/h (1 Bft) 97,87 %
14.08.2018 11:28 19,7 C 23,3 C 18,9 C 87 % 1011,5 hPa 0,0 l/m 0 min 0 min 302 W/m 4,5 km/h (1 Bft) 95,74 %
14.08.2018 11:30 19,8 C 22,8 C 18,9 C 86 % 1011,6 hPa 0,0 l/m 0 min 0 min 316 W/m 6,8 km/h (2 Bft) 95,74 %
14.08.2018 11:32 19,9 C 22,8 C 18,9 C 85 % 1011,6 hPa 0,0 l/m 2 min 0 min 369 W/m 6,8 km/h (2 Bft) 91,49 %
14.08.2018 11:34 20,0 C 22,2 C 18,9 C 85 % 1011,5 hPa 0,0 l/m 0 min 0 min 267 W/m 6,8 km/h (2 Bft) 93,62 %
14.08.2018 11:36 20,1 C 21,7 C 18,9 C 85 % 1011,6 hPa 0,0 l/m 0 min 0 min 219 W/m 6,8 km/h (2 Bft) 93,48 %
14.08.2018 11:38 20,1 C 21,7 C 18,9 C 84 % 1011,7 hPa 0,0 l/m 0 min 0 min 251 W/m 6,8 km/h (2 Bft) 93,62 %
14.08.2018 11:40 20,2 C 21,1 C 18,9 C 84 % 1011,8 hPa 0,0 l/m 0 min 0 min 254 W/m 9,0 km/h (2 Bft) 93,62 %
14.08.2018 11:42 20,2 C 21,1 C 18,9 C 83 % 1011,8 hPa 0,0 l/m 0 min 0 min 207 W/m 11,3 km/h (2 Bft) 93,62 %
14.08.2018 11:44 20,2 C 20,6 C 18,9 C 82 % 1011,8 hPa 0,0 l/m 0 min 0 min 226 W/m 18,0 km/h (3 Bft) 95,74 %
14.08.2018 11:46 20,2 C 20,6 C 18,9 C 81 % 1011,8 hPa 0,0 l/m 0 min 0 min 165 W/m 11,3 km/h (2 Bft) 95,65 %
14.08.2018 11:48 20,2 C 21,1 C 18,9 C 81 % 1011,8 hPa 0,0 l/m 0 min 0 min 212 W/m 11,3 km/h (2 Bft) 95,74 %
14.08.2018 11:50 20,3 C 21,1 C 18,9 C 81 % 1011,8 hPa 0,0 l/m 0 min 0 min 249 W/m 13,5 km/h (3 Bft) 93,62 %
14.08.2018 11:52 20,3 C 24,4 C 18,9 C 81 % 1011,9 hPa 0,0 l/m 2 min 0 min 607 W/m 22,5 km/h (4 Bft) 94,64 %
14.08.2018 11:54 20,3 C 23,3 C 18,9 C 81 % 1011,8 hPa 0,0 l/m 2 min 0 min 719 W/m 9,0 km/h (2 Bft) 95,74 %
14.08.2018 11:56 20,4 C 25,6 C 18,9 C 82 % 1011,8 hPa 0,0 l/m 2 min 0 min 395 W/m 13,5 km/h (3 Bft) 95,65 %
14.08.2018 11:58 20,6 C 27,2 C 19,4 C 82 % 1011,8 hPa 0,0 l/m 2 min 0 min 736 W/m 13,5 km/h (3 Bft) 95,74 %
14.08.2018 12:00 20,7 C 27,2 C 19,4 C 81 % 1011,9 hPa 0,0 l/m 2 min 0 min 745 W/m 9,0 km/h (2 Bft) 95,74 %
14.08.2018 12:02 20,8 C 27,8 C 19,4 C 79 % 1011,8 hPa 0,0 l/m 2 min 0 min 745 W/m 15,8 km/h (3 Bft) 93,62 %
14.08.2018 12:04 21,0 C 28,3 C 20,0 C 78 % 1011,8 hPa 0,0 l/m 2 min 0 min 867 W/m 13,5 km/h (3 Bft) 95,74 %
14.08.2018 12:08 21,3 C 25,6 C 20,0 C 77 % 1011,9 hPa 0,0 l/m 4 min 0 min 516 W/m 15,8 km/h (3 Bft) 95,74 %
14.08.2018 12:10 21,4 C 25,0 C 20,0 C 76 % 1011,9 hPa 0,0 l/m 2 min 0 min 480 W/m 9,0 km/h (2 Bft) 95,65 %
14.08.2018 12:12 21,6 C 25,6 C 20,0 C 76 % 1012,0 hPa 0,0 l/m 2 min 0 min 452 W/m 9,0 km/h (2 Bft) 95,74 %
14.08.2018 12:14 21,7 C 26,1 C 20,0 C 76 % 1011,9 hPa 0,0 l/m 0 min 0 min 356 W/m 11,3 km/h (2 Bft) 93,62 %
14.08.2018 12:16 21,8 C 28,3 C 20,0 C 77 % 1011,9 hPa 0,0 l/m 2 min 0 min 508 W/m 9,0 km/h (2 Bft) 95,74 %
14.08.2018 12:18 21,9 C 30,0 C 20,6 C 77 % 1012,0 hPa 0,0 l/m 2 min 0 min 731 W/m 13,5 km/h (3 Bft) 95,74 %
14.08.2018 12:20 22,1 C 30,0 C 20,6 C 75 % 1012,0 hPa 0,0 l/m 2 min 0 min 731 W/m 15,8 km/h (3 Bft) 97,83 %
14.08.2018 12:22 22,2 C 28,3 C 20,0 C 74 % 1011,9 hPa 0,0 l/m 0 min 0 min 268 W/m 11,3 km/h (2 Bft) 95,74 %
14.08.2018 12:24 22,3 C 26,1 C 20,0 C 72 % 1012,0 hPa 0,0 l/m 0 min 0 min 261 W/m 20,3 km/h (4 Bft) 97,87 %
14.08.2018 12:26 22,3 C 24,4 C 20,0 C 71 % 1012,0 hPa 0,0 l/m 0 min 0 min 247 W/m 9,0 km/h (2 Bft) 97,87 %
14.08.2018 12:28 22,3 C 23,3 C 20,0 C 72 % 1012,0 hPa 0,0 l/m 0 min 0 min 276 W/m 20,3 km/h (4 Bft) 97,87 %
14.08.2018 12:30 22,3 C 23,9 C 20,0 C 72 % 1012,0 hPa 0,0 l/m 0 min 0 min 320 W/m 11,3 km/h (2 Bft) 95,74 %
14.08.2018 12:32 22,3 C 25,0 C 20,0 C 73 % 1012,0 hPa 0,0 l/m 0 min 0 min 366 W/m 9,0 km/h (2 Bft) 97,83 %
14.08.2018 12:34 22,3 C 23,3 C 20,0 C 73 % 1012,0 hPa 0,0 l/m 0 min 0 min 321 W/m 11,3 km/h (2 Bft) 100,00 %
14.08.2018 12:36 22,3 C 24,4 C 20,0 C 73 % 1012,0 hPa 0,0 l/m 0 min 0 min 360 W/m 11,3 km/h (2 Bft) 100,00 %
14.08.2018 12:38 22,3 C 24,4 C 20,0 C 73 % 1012,1 hPa 0,0 l/m 0 min 0 min 358 W/m 13,5 km/h (3 Bft) 100,00 %
14.08.2018 12:40 22,4 C 24,4 C 20,0 C 72 % 1012,0 hPa 0,0 l/m 0 min 0 min 316 W/m 11,3 km/h (2 Bft) 100,00 %
14.08.2018 12:42 22,4 C 27,2 C 20,6 C 73 % 1012,0 hPa 0,0 l/m 0 min 0 min 338 W/m 13,5 km/h (3 Bft) 100,00 %
14.08.2018 12:44 22,4 C 27,8 C 20,6 C 73 % 1012,0 hPa 0,0 l/m 0 min 0 min 345 W/m 9,0 km/h (2 Bft) 100,00 %
14.08.2018 12:46 22,6 C 27,8 C 20,6 C 72 % 1012,1 hPa 0,0 l/m 0 min 0 min 377 W/m 11,3 km/h (2 Bft) 100,00 %
14.08.2018 12:48 22,6 C 26,7 C 20,6 C 72 % 1012,1 hPa 0,0 l/m 0 min 0 min 358 W/m 15,8 km/h (3 Bft) 100,00 %
14.08.2018 12:50 22,7 C 27,2 C 20,6 C 71 % 1012,1 hPa 0,0 l/m 0 min 0 min 379 W/m 15,8 km/h (3 Bft) 100,00 %
14.08.2018 12:52 22,8 C 28,3 C 20,6 C 71 % 1012,1 hPa 0,0 l/m 0 min 0 min 380 W/m 11,3 km/h (2 Bft) 100,00 %
14.08.2018 12:54 22,8 C 28,3 C 21,1 C 71 % 1012,2 hPa 0,0 l/m 0 min 0 min 380 W/m 13,5 km/h (3 Bft) 100,00 %
14.08.2018 12:56 22,9 C 27,2 C 20,6 C 70 % 1012,1 hPa 0,0 l/m 0 min 0 min 380 W/m 11,3 km/h (2 Bft) 100,00 %
14.08.2018 12:58 23,0 C 28,3 C 21,1 C 71 % 1012,1 hPa 0,0 l/m 0 min 0 min 373 W/m 11,3 km/h (2 Bft) 100,00 %
14.08.2018 13:00 23,1 C 26,7 C 21,1 C 71 % 1012,1 hPa 0,0 l/m 0 min 0 min 318 W/m 11,3 km/h (2 Bft) 97,87 %
14.08.2018 13:02 23,2 C 27,2 C 21,1 C 71 % 1012,2 hPa 0,0 l/m 0 min 0 min 306 W/m 4,5 km/h (1 Bft) 100,00 %
14.08.2018 13:04 23,3 C 27,2 C 21,1 C 72 % 1012,2 hPa 0,0 l/m 0 min 0 min 302 W/m 13,5 km/h (3 Bft) 100,00 %
14.08.2018 13:06 23,3 C 25,6 C 21,1 C 70 % 1012,1 hPa 0,0 l/m 0 min 0 min 329 W/m 11,3 km/h (2 Bft) 100,00 %
14.08.2018 13:08 23,3 C 26,1 C 21,1 C 70 % 1012,2 hPa 0,0 l/m 2 min 0 min 404 W/m 9,0 km/h (2 Bft) 100,00 %
14.08.2018 13:10 23,4 C 26,7 C 21,1 C 69 % 1012,2 hPa 0,0 l/m 2 min 0 min 440 W/m 15,8 km/h (3 Bft) 100,00 %
14.08.2018 13:12 23,4 C 27,2 C 21,1 C 69 % 1012,2 hPa 0,0 l/m 2 min 0 min 420 W/m 15,8 km/h (3 Bft) 100,00 %
14.08.2018 13:14 23,4 C 26,1 C 21,1 C 68 % 1012,3 hPa 0,0 l/m 2 min 0 min 413 W/m 20,3 km/h (4 Bft) 100,00 %
14.08.2018 13:16 23,4 C 24,4 C 21,1 C 67 % 1012,3 hPa 0,0 l/m 0 min 0 min 345 W/m 11,3 km/h (2 Bft) 100,00 %
14.08.2018 13:18 23,4 C 25,0 C 21,1 C 67 % 1012,2 hPa 0,0 l/m 0 min 0 min 326 W/m 9,0 km/h (2 Bft) 100,00 %
14.08.2018 13:20 23,4 C 24,4 C 21,1 C 68 % 1012,3 hPa 0,0 l/m 0 min 0 min 314 W/m 9,0 km/h (2 Bft) 100,00 %
14.08.2018 13:22 23,4 C 23,9 C 20,6 C 68 % 1012,3 hPa 0,0 l/m 0 min 0 min 322 W/m 9,0 km/h (2 Bft) 100,00 %
14.08.2018 13:24 23,4 C 23,9 C 20,6 C 68 % 1012,3 hPa 0,0 l/m 0 min 0 min 299 W/m 9,0 km/h (2 Bft) 100,00 %
14.08.2018 13:26 23,3 C 23,3 C 20,6 C 68 % 1012,3 hPa 0,0 l/m 0 min 0 min 234 W/m 11,3 km/h (2 Bft) 100,00 %
14.08.2018 13:28 23,2 C 22,8 C 20,6 C 68 % 1012,4 hPa 0,0 l/m 0 min 0 min 223 W/m 9,0 km/h (2 Bft) 97,87 %
14.08.2018 13:30 23,1 C 22,8 C 20,6 C 68 % 1012,3 hPa 0,0 l/m 0 min 0 min 246 W/m 11,3 km/h (2 Bft) 97,87 %
14.08.2018 13:32 23,0 C 22,8 C 20,6 C 68 % 1012,3 hPa 0,0 l/m 0 min 0 min 281 W/m 9,0 km/h (2 Bft) 97,87 %
14.08.2018 13:34 22,9 C 22,8 C 20,6 C 68 % 1012,4 hPa 0,0 l/m 0 min 0 min 291 W/m 6,8 km/h (2 Bft) 97,83 %
14.08.2018 13:36 22,8 C 22,8 C 20,6 C 69 % 1012,3 hPa 0,0 l/m 0 min 0 min 299 W/m 11,3 km/h (2 Bft) 97,87 %
14.08.2018 13:38 22,8 C 23,3 C 20,6 C 69 % 1012,3 hPa 0,0 l/m 2 min 0 min 395 W/m 15,8 km/h (3 Bft) 97,87 %
14.08.2018 13:40 22,8 C 23,9 C 21,1 C 69 % 1012,4 hPa 0,0 l/m 2 min 0 min 942 W/m 13,5 km/h (3 Bft) 97,87 %
14.08.2018 13:42 22,8 C 23,9 C 21,1 C 70 % 1012,4 hPa 0,0 l/m 2 min 0 min 420 W/m 11,3 km/h (2 Bft) 96,23 %
14.08.2018 13:44 22,7 C 23,3 C 21,1 C 68 % 1012,3 hPa 0,0 l/m 0 min 0 min 340 W/m 9,0 km/h (2 Bft) 95,65 %
14.08.2018 13:46 22,7 C 23,3 C 21,1 C 68 % 1012,3 hPa 0,0 l/m 0 min 0 min 317 W/m 11,3 km/h (2 Bft) 97,87 %
14.08.2018 13:48 22,7 C 23,3 C 21,1 C 69 % 1012,4 hPa 0,0 l/m 0 min 0 min 293 W/m 18,0 km/h (3 Bft) 97,87 %
14.08.2018 13:50 22,7 C 23,3 C 21,1 C 69 % 1012,4 hPa 0,0 l/m 0 min 0 min 304 W/m 11,3 km/h (2 Bft) 97,87 %
14.08.2018 13:52 22,7 C 23,3 C 21,1 C 69 % 1012,4 hPa 0,0 l/m 0 min 0 min 313 W/m 15,8 km/h (3 Bft) 95,83 %
14.08.2018 13:54 22,7 C 23,3 C 21,1 C 69 % 1012,4 hPa 0,0 l/m 0 min 0 min 211 W/m 13,5 km/h (3 Bft) 97,83 %
14.08.2018 13:56 22,7 C 23,3 C 21,1 C 70 % 1012,5 hPa 0,0 l/m 0 min 0 min 223 W/m 15,8 km/h (3 Bft) 97,87 %
14.08.2018 13:58 22,8 C 23,9 C 21,1 C 69 % 1012,4 hPa 0,0 l/m 2 min 0 min 471 W/m 20,3 km/h (4 Bft) 95,74 %
14.08.2018 14:00 22,8 C 23,9 C 21,1 C 69 % 1012,4 hPa 0,0 l/m 2 min 0 min 985 W/m 13,5 km/h (3 Bft) 97,87 %
14.08.2018 14:02 22,8 C 23,9 C 21,7 C 69 % 1012,4 hPa 0,0 l/m 2 min 0 min 945 W/m 18,0 km/h (3 Bft) 95,74 %
14.08.2018 14:04 22,9 C 24,4 C 21,7 C 68 % 1012,3 hPa 0,0 l/m 2 min 0 min 945 W/m 13,5 km/h (3 Bft) 97,87 %
14.08.2018 14:06 23,0 C 24,4 C 21,7 C 69 % 1012,4 hPa 0,0 l/m 2 min 0 min 904 W/m 11,3 km/h (2 Bft) 97,83 %
14.08.2018 14:08 23,1 C 23,9 C 21,7 C 69 % 1012,4 hPa 0,0 l/m 2 min 0 min 440 W/m 13,5 km/h (3 Bft) 97,87 %
14.08.2018 14:10 23,2 C 23,9 C 21,7 C 69 % 1012,4 hPa 0,0 l/m 0 min 0 min 176 W/m 9,0 km/h (2 Bft) 100,00 %
14.08.2018 14:12 23,2 C 23,9 C 21,7 C 69 % 1012,4 hPa 0,0 l/m 0 min 0 min 176 W/m 11,3 km/h (2 Bft) 100,00 %
14.08.2018 14:14 23,3 C 24,4 C 21,7 C 69 % 1012,4 hPa 0,0 l/m 0 min 0 min 325 W/m 11,3 km/h (2 Bft) 97,87 %
14.08.2018 14:16 23,3 C 24,4 C 22,2 C 68 % 1012,3 hPa 0,0 l/m 2 min 0 min 881 W/m 11,3 km/h (2 Bft) 97,87 %
14.08.2018 14:18 23,4 C 25,0 C 22,2 C 68 % 1012,4 hPa 0,0 l/m 2 min 0 min 884 W/m 9,0 km/h (2 Bft) 97,83 %
14.08.2018 14:20 23,6 C 24,4 C 22,2 C 68 % 1012,4 hPa 0,0 l/m 2 min 0 min 897 W/m 11,3 km/h (2 Bft) 100,00 %
14.08.2018 14:22 23,6 C 25,0 C 22,2 C 67 % 1012,4 hPa 0,0 l/m 2 min 0 min 876 W/m 6,8 km/h (2 Bft) 100,00 %
14.08.2018 14:24 23,7 C 25,0 C 22,2 C 67 % 1012,4 hPa 0,0 l/m 2 min 0 min 865 W/m 15,8 km/h (3 Bft) 97,87 %
14.08.2018 14:26 23,8 C 25,0 C 22,2 C 67 % 1012,4 hPa 0,0 l/m 2 min 0 min 902 W/m 11,3 km/h (2 Bft) 100,00 %
14.08.2018 14:28 23,9 C 25,0 C 22,2 C 67 % 1012,4 hPa 0,0 l/m 2 min 0 min 884 W/m 15,8 km/h (3 Bft) 100,00 %
14.08.2018 14:30 23,9 C 25,0 C 22,2 C 66 % 1012,2 hPa 0,0 l/m 2 min 0 min 863 W/m 15,8 km/h (3 Bft) 100,00 %
14.08.2018 14:32 24,0 C 25,0 C 22,2 C 67 % 1012,4 hPa 0,0 l/m 2 min 0 min 875 W/m 6,8 km/h (2 Bft) 100,00 %
14.08.2018 14:34 24,1 C 25,0 C 22,8 C 67 % 1012,4 hPa 0,0 l/m 2 min 0 min 860 W/m 13,5 km/h (3 Bft) 97,87 %
14.08.2018 14:36 24,1 C 25,0 C 22,2 C 66 % 1012,4 hPa 0,0 l/m 0 min 0 min 272 W/m 9,0 km/h (2 Bft) 97,92 %
14.08.2018 14:38 24,2 C 24,4 C 22,2 C 66 % 1012,4 hPa 0,0 l/m 0 min 0 min 224 W/m 9,0 km/h (2 Bft) 97,87 %
14.08.2018 14:40 24,2 C 23,9 C 21,7 C 65 % 1012,5 hPa 0,0 l/m 0 min 0 min 189 W/m 15,8 km/h (3 Bft) 97,83 %
14.08.2018 14:42 24,2 C 23,9 C 21,7 C 64 % 1012,4 hPa 0,0 l/m 0 min 0 min 259 W/m 18,0 km/h (3 Bft) 97,87 %
14.08.2018 14:44 24,1 C 23,9 C 21,7 C 64 % 1012,5 hPa 0,0 l/m 0 min 0 min 236 W/m 15,8 km/h (3 Bft) 95,74 %
14.08.2018 14:46 24,1 C 23,9 C 21,7 C 65 % 1012,5 hPa 0,0 l/m 0 min 0 min 182 W/m 18,0 km/h (3 Bft) 95,74 %
14.08.2018 14:48 24,1 C 23,9 C 21,7 C 65 % 1012,5 hPa 0,0 l/m 0 min 0 min 146 W/m 15,8 km/h (3 Bft) 95,74 %
14.08.2018 14:50 24,1 C 23,9 C 21,7 C 65 % 1012,5 hPa 0,0 l/m 0 min 0 min 330 W/m 9,0 km/h (2 Bft) 97,87 %
14.08.2018 14:52 24,1 C 24,4 C 22,2 C 65 % 1012,5 hPa 0,0 l/m 2 min 0 min 842 W/m 13,5 km/h (3 Bft) 95,83 %
14.08.2018 14:54 24,1 C 24,4 C 22,2 C 66 % 1012,5 hPa 0,0 l/m 2 min 0 min 845 W/m 11,3 km/h (2 Bft) 95,74 %
14.08.2018 14:56 24,1 C 25,0 C 22,2 C 66 % 1012,5 hPa 0,0 l/m 2 min 0 min 877 W/m 13,5 km/h (3 Bft) 95,74 %
14.08.2018 14:58 24,2 C 25,0 C 22,8 C 66 % 1012,4 hPa 0,0 l/m 2 min 0 min 865 W/m 20,3 km/h (4 Bft) 95,74 %
14.08.2018 15:00 24,2 C 24,4 C 22,2 C 65 % 1012,5 hPa 0,0 l/m 0 min 0 min 306 W/m 9,0 km/h (2 Bft) 93,62 %
14.08.2018 15:02 24,3 C 24,4 C 22,2 C 65 % 1012,5 hPa 0,0 l/m 0 min 0 min 306 W/m 13,5 km/h (3 Bft) 95,65 %
14.08.2018 15:04 24,3 C 25,0 C 22,2 C 65 % 1012,5 hPa 0,0 l/m 0 min 0 min 306 W/m 11,3 km/h (2 Bft) 95,74 %
14.08.2018 15:06 24,3 C 25,0 C 22,8 C 65 % 1012,6 hPa 0,0 l/m 2 min 0 min 875 W/m 18,0 km/h (3 Bft) 97,14 %
14.08.2018 15:08 24,4 C 25,0 C 22,8 C 66 % 1012,6 hPa 0,0 l/m 2 min 0 min 888 W/m 9,0 km/h (2 Bft) 93,62 %
14.08.2018 15:10 24,4 C 25,0 C 22,8 C 66 % 1012,5 hPa 0,0 l/m 2 min 0 min 895 W/m 9,0 km/h (2 Bft) 95,74 %
14.08.2018 15:12 24,5 C 25,0 C 22,8 C 65 % 1012,5 hPa 0,0 l/m 2 min 0 min 897 W/m 9,0 km/h (2 Bft) 95,74 %
14.08.2018 15:14 24,6 C 25,0 C 22,8 C 65 % 1012,6 hPa 0,0 l/m 2 min 0 min 904 W/m 15,8 km/h (3 Bft) 95,74 %
14.08.2018 15:16 24,6 C 25,0 C 22,8 C 65 % 1012,6 hPa 0,0 l/m 2 min 0 min 889 W/m 11,3 km/h (2 Bft) 95,74 %
14.08.2018 15:18 24,7 C 25,0 C 22,8 C 66 % 1012,6 hPa 0,0 l/m 2 min 0 min 890 W/m 13,5 km/h (3 Bft) 93,48 %
14.08.2018 15:20 24,7 C 25,6 C 22,8 C 65 % 1012,6 hPa 0,0 l/m 2 min 0 min 894 W/m 11,3 km/h (2 Bft) 96,61 %
14.08.2018 15:22 24,7 C 25,6 C 22,8 C 65 % 1012,6 hPa 0,0 l/m 2 min 0 min 890 W/m 15,8 km/h (3 Bft) 94,29 %
14.08.2018 15:24 24,8 C 26,1 C 23,3 C 65 % 1012,5 hPa 0,0 l/m 2 min 0 min 918 W/m 13,5 km/h (3 Bft) 93,62 %
14.08.2018 15:26 24,9 C 25,6 C 23,3 C 64 % 1012,6 hPa 0,0 l/m 2 min 0 min 898 W/m 13,5 km/h (3 Bft) 95,74 %
14.08.2018 15:28 24,9 C 25,0 C 22,8 C 63 % 1012,5 hPa 0,0 l/m 2 min 0 min 538 W/m 13,5 km/h (3 Bft) 97,87 %
14.08.2018 15:30 24,9 C 25,0 C 22,8 C 62 % 1012,7 hPa 0,0 l/m 0 min 0 min 287 W/m 11,3 km/h (2 Bft) 95,65 %
14.08.2018 15:32 24,8 C 25,0 C 22,8 C 63 % 1012,6 hPa 0,0 l/m 2 min 0 min 884 W/m 15,8 km/h (3 Bft) 97,87 %
14.08.2018 15:34 24,8 C 24,4 C 22,8 C 62 % 1012,7 hPa 0,0 l/m 2 min 0 min 547 W/m 22,5 km/h (4 Bft) 97,87 %
14.08.2018 15:36 24,8 C 24,4 C 22,8 C 63 % 1012,7 hPa 0,0 l/m 0 min 0 min 175 W/m 15,8 km/h (3 Bft) 95,74 %
14.08.2018 15:38 24,8 C 24,4 C 22,8 C 63 % 1012,7 hPa 0,0 l/m 0 min 0 min 136 W/m 11,3 km/h (2 Bft) 95,74 %
14.08.2018 15:40 24,7 C 23,9 C 22,2 C 62 % 1012,7 hPa 0,0 l/m 0 min 0 min 115 W/m 18,0 km/h (3 Bft) 95,74 %
14.08.2018 15:42 24,7 C 23,9 C 22,2 C 62 % 1012,8 hPa 0,0 l/m 0 min 0 min 262 W/m 13,5 km/h (3 Bft) 97,83 %
14.08.2018 15:44 24,6 C 23,9 C 22,2 C 62 % 1012,8 hPa 0,0 l/m 2 min 0 min 559 W/m 15,8 km/h (3 Bft) 97,87 %
14.08.2018 15:46 24,6 C 24,4 C 22,2 C 62 % 1012,7 hPa 0,0 l/m 0 min 0 min 171 W/m 11,3 km/h (2 Bft) 93,62 %
14.08.2018 15:48 24,6 C 25,0 C 22,8 C 63 % 1012,9 hPa 0,0 l/m 2 min 0 min 564 W/m 13,5 km/h (3 Bft) 97,87 %
14.08.2018 15:50 24,6 C 25,0 C 22,8 C 62 % 1012,8 hPa 0,0 l/m 2 min 0 min 803 W/m 18,0 km/h (3 Bft) 97,87 %
14.08.2018 15:52 24,6 C 25,6 C 22,8 C 61 % 1012,9 hPa 0,0 l/m 2 min 0 min 829 W/m 9,0 km/h (2 Bft) 98,15 %
14.08.2018 15:54 24,7 C 25,6 C 22,8 C 61 % 1012,7 hPa 0,0 l/m 2 min 0 min 835 W/m 13,5 km/h (3 Bft) 98,00 %
14.08.2018 15:56 24,7 C 25,6 C 23,3 C 63 % 1012,8 hPa 0,0 l/m 2 min 0 min 825 W/m 15,8 km/h (3 Bft) 100,00 %
14.08.2018 15:58 24,8 C 26,1 C 23,3 C 63 % 1012,9 hPa 0,0 l/m 2 min 0 min 785 W/m 13,5 km/h (3 Bft) 97,87 %
14.08.2018 16:00 24,9 C 26,1 C 23,3 C 62 % 1012,8 hPa 0,0 l/m 2 min 0 min 691 W/m 11,3 km/h (2 Bft) 97,87 %
14.08.2018 16:02 24,9 C 25,6 C 23,3 C 61 % 1012,8 hPa 0,0 l/m 2 min 0 min 490 W/m 11,3 km/h (2 Bft) 97,83 %
14.08.2018 16:04 25,0 C 25,0 C 22,8 C 61 % 1012,9 hPa 0,0 l/m 0 min 0 min 165 W/m 9,0 km/h (2 Bft) 93,62 %
14.08.2018 16:06 25,0 C 25,6 C 22,8 C 61 % 1012,9 hPa 0,0 l/m 0 min 0 min 171 W/m 13,5 km/h (3 Bft) 95,83 %
14.08.2018 16:08 25,0 C 25,6 C 22,8 C 61 % 1012,9 hPa 0,0 l/m 2 min 0 min 407 W/m 15,8 km/h (3 Bft) 98,31 %
14.08.2018 16:10 25,0 C 26,1 C 22,8 C 60 % 1012,9 hPa 0,0 l/m 2 min 0 min 767 W/m 18,0 km/h (3 Bft) 97,87 %
14.08.2018 16:12 25,0 C 26,1 C 23,3 C 60 % 1013,0 hPa 0,0 l/m 2 min 0 min 776 W/m 13,5 km/h (3 Bft) 97,87 %
14.08.2018 16:14 25,1 C 25,6 C 22,8 C 60 % 1012,9 hPa 0,0 l/m 2 min 0 min 522 W/m 11,3 km/h (2 Bft) 97,87 %
14.08.2018 16:16 25,0 C 25,0 C 22,8 C 60 % 1012,9 hPa 0,0 l/m 0 min 0 min 145 W/m 20,3 km/h (4 Bft) 97,83 %
14.08.2018 16:18 24,9 C 25,0 C 22,8 C 60 % 1012,9 hPa 0,0 l/m 0 min 0 min 200 W/m 18,0 km/h (3 Bft) 95,74 %
14.08.2018 16:20 24,9 C 26,7 C 22,8 C 60 % 1013,0 hPa 0,0 l/m 2 min 0 min 442 W/m 15,8 km/h (3 Bft) 97,87 %
14.08.2018 16:22 24,9 C 27,2 C 22,8 C 61 % 1013,0 hPa 0,0 l/m 2 min 0 min 756 W/m 15,8 km/h (3 Bft) 95,74 %
14.08.2018 16:24 24,9 C 27,8 C 22,8 C 61 % 1013,0 hPa 0,0 l/m 2 min 0 min 713 W/m 13,5 km/h (3 Bft) 97,87 %
14.08.2018 16:26 25,0 C 26,7 C 22,8 C 61 % 1013,0 hPa 0,0 l/m 2 min 0 min 691 W/m 15,8 km/h (3 Bft) 97,87 %
14.08.2018 16:28 25,0 C 25,6 C 22,8 C 61 % 1013,0 hPa 0,0 l/m 0 min 0 min 113 W/m 13,5 km/h (3 Bft) 97,87 %
14.08.2018 16:30 25,0 C 25,6 C 22,8 C 61 % 1012,9 hPa 0,0 l/m 0 min 0 min 185 W/m 11,3 km/h (2 Bft) 97,83 %
14.08.2018 16:32 24,9 C 25,0 C 22,2 C 61 % 1013,0 hPa 0,0 l/m 0 min 0 min 139 W/m 13,5 km/h (3 Bft) 97,87 %
14.08.2018 16:34 24,9 C 25,0 C 22,2 C 61 % 1012,9 hPa 0,0 l/m 0 min 0 min 134 W/m 20,3 km/h (4 Bft) 97,87 %
14.08.2018 16:36 24,9 C 24,4 C 22,8 C 61 % 1012,9 hPa 0,0 l/m 0 min 0 min 136 W/m 11,3 km/h (2 Bft) 93,62 %
14.08.2018 16:38 24,8 C 24,4 C 22,2 C 61 % 1012,9 hPa 0,0 l/m 0 min 0 min 126 W/m 6,8 km/h (2 Bft) 97,87 %
14.08.2018 16:40 24,8 C 24,4 C 22,2 C 62 % 1013,0 hPa 0,0 l/m 0 min 0 min 151 W/m 6,8 km/h (2 Bft) 97,83 %
14.08.2018 16:42 24,8 C 24,4 C 22,2 C 62 % 1012,9 hPa 0,0 l/m 0 min 0 min 202 W/m 9,0 km/h (2 Bft) 97,87 %
14.08.2018 16:44 24,8 C 24,4 C 22,2 C 62 % 1013,0 hPa 0,0 l/m 0 min 0 min 210 W/m 9,0 km/h (2 Bft) 100,00 %
14.08.2018 16:46 24,7 C 25,0 C 22,2 C 62 % 1013,0 hPa 0,0 l/m 0 min 0 min 202 W/m 11,3 km/h (2 Bft) 100,00 %
14.08.2018 16:48 24,7 C 26,1 C 22,8 C 62 % 1013,0 hPa 0,0 l/m 0 min 0 min 202 W/m 11,3 km/h (2 Bft) 97,87 %
14.08.2018 16:50 24,7 C 25,6 C 22,8 C 63 % 1013,0 hPa 0,0 l/m 0 min 0 min 204 W/m 9,0 km/h (2 Bft) 100,00 %
14.08.2018 16:52 24,7 C 25,0 C 22,8 C 63 % 1013,1 hPa 0,0 l/m 0 min 0 min 222 W/m 13,5 km/h (3 Bft) 100,00 %
14.08.2018 16:54 24,7 C 25,0 C 22,8 C 62 % 1013,1 hPa 0,0 l/m 0 min 0 min 211 W/m 6,8 km/h (2 Bft) 100,00 %
14.08.2018 16:56 24,7 C 25,0 C 22,8 C 62 % 1013,0 hPa 0,0 l/m 0 min 0 min 247 W/m 6,8 km/h (2 Bft) 97,87 %
14.08.2018 16:58 24,7 C 25,0 C 22,8 C 63 % 1013,1 hPa 0,0 l/m 2 min 0 min 738 W/m 6,8 km/h (2 Bft) 100,00 %
14.08.2018 17:00 24,7 C 25,0 C 22,8 C 63 % 1013,1 hPa 0,0 l/m 2 min 0 min 294 W/m 9,0 km/h (2 Bft) 100,00 %
14.08.2018 17:02 24,7 C 24,4 C 22,8 C 63 % 1013,2 hPa 0,0 l/m 0 min 0 min 177 W/m 11,3 km/h (2 Bft) 100,00 %
14.08.2018 17:04 24,7 C 24,4 C 22,8 C 62 % 1013,2 hPa 0,0 l/m 0 min 0 min 252 W/m 6,8 km/h (2 Bft) 100,00 %
14.08.2018 17:06 24,7 C 24,4 C 22,8 C 63 % 1013,2 hPa 0,0 l/m 2 min 0 min 338 W/m 4,5 km/h (1 Bft) 100,00 %
14.08.2018 17:08 24,7 C 25,0 C 22,8 C 62 % 1013,2 hPa 0,0 l/m 2 min 0 min 288 W/m 13,5 km/h (3 Bft) 100,00 %
14.08.2018 17:10 24,7 C 25,0 C 22,8 C 63 % 1013,2 hPa 0,0 l/m 0 min 0 min 262 W/m 9,0 km/h (2 Bft) 100,00 %
14.08.2018 17:12 24,7 C 25,0 C 22,8 C 63 % 1013,2 hPa 0,0 l/m 0 min 0 min 241 W/m 11,3 km/h (2 Bft) 100,00 %
14.08.2018 17:14 24,7 C 24,4 C 22,8 C 63 % 1013,2 hPa 0,0 l/m 0 min 0 min 216 W/m 4,5 km/h (1 Bft) 100,00 %
14.08.2018 17:16 24,7 C 24,4 C 22,2 C 63 % 1013,2 hPa 0,0 l/m 0 min 0 min 214 W/m 13,5 km/h (3 Bft) 100,00 %
14.08.2018 17:18 24,6 C 23,9 C 22,2 C 63 % 1013,2 hPa 0,0 l/m 0 min 0 min 244 W/m 9,0 km/h (2 Bft) 100,00 %
14.08.2018 17:20 24,6 C 23,9 C 22,2 C 63 % 1013,2 hPa 0,0 l/m 0 min 0 min 225 W/m 11,3 km/h (2 Bft) 97,87 %
14.08.2018 17:22 24,6 C 23,9 C 22,2 C 63 % 1013,3 hPa 0,0 l/m 0 min 0 min 194 W/m 13,5 km/h (3 Bft) 100,00 %
14.08.2018 17:24 24,5 C 23,9 C 22,2 C 63 % 1013,2 hPa 0,0 l/m 0 min 0 min 165 W/m 11,3 km/h (2 Bft) 100,00 %
14.08.2018 17:26 24,4 C 23,3 C 22,2 C 63 % 1013,3 hPa 0,0 l/m 0 min 0 min 149 W/m 6,8 km/h (2 Bft) 100,00 %
14.08.2018 17:28 24,4 C 23,3 C 22,2 C 64 % 1013,2 hPa 0,0 l/m 0 min 0 min 137 W/m 6,8 km/h (2 Bft) 100,00 %
14.08.2018 17:30 24,4 C 23,9 C 22,2 C 64 % 1013,3 hPa 0,0 l/m 0 min 0 min 160 W/m 4,5 km/h (1 Bft) 100,00 %
14.08.2018 17:32 24,3 C 23,3 C 22,2 C 64 % 1013,3 hPa 0,0 l/m 0 min 0 min 181 W/m 11,3 km/h (2 Bft) 100,00 %
14.08.2018 17:34 24,3 C 23,9 C 22,2 C 63 % 1013,3 hPa 0,0 l/m 2 min 0 min 257 W/m 9,0 km/h (2 Bft) 100,00 %
14.08.2018 17:36 24,3 C 24,4 C 22,2 C 64 % 1013,4 hPa 0,0 l/m 2 min 0 min 326 W/m 9,0 km/h (2 Bft) 100,00 %
14.08.2018 17:38 24,3 C 24,4 C 22,2 C 65 % 1013,4 hPa 0,0 l/m 2 min 0 min 326 W/m 9,0 km/h (2 Bft) 100,00 %
14.08.2018 17:40 24,3 C 24,4 C 22,2 C 67 % 1013,4 hPa 0,0 l/m 2 min 0 min 280 W/m 4,5 km/h (1 Bft) 100,00 %
14.08.2018 17:42 24,3 C 23,9 C 22,2 C 69 % 1013,4 hPa 0,0 l/m 0 min 0 min 161 W/m 6,8 km/h (2 Bft) 100,00 %
14.08.2018 17:44 24,3 C 23,3 C 22,2 C 69 % 1013,3 hPa 0,0 l/m 0 min 0 min 130 W/m 6,8 km/h (2 Bft) 100,00 %
14.08.2018 17:46 24,3 C 23,3 C 21,7 C 70 % 1013,4 hPa 0,0 l/m 0 min 0 min 122 W/m 11,3 km/h (2 Bft) 95,74 %
14.08.2018 17:48 24,2 C 23,3 C 21,7 C 70 % 1013,4 hPa 0,0 l/m 0 min 0 min 123 W/m 9,0 km/h (2 Bft) 97,87 %
14.08.2018 17:50 24,2 C 22,8 C 21,7 C 70 % 1013,6 hPa 0,0 l/m 0 min 0 min 115 W/m 6,8 km/h (2 Bft) 97,83 %
14.08.2018 17:52 24,1 C 22,8 C 21,7 C 71 % 1013,6 hPa 0,0 l/m 0 min 0 min 112 W/m 6,8 km/h (2 Bft) 97,87 %
14.08.2018 17:54 24,1 C 22,8 C 21,7 C 71 % 1013,6 hPa 0,0 l/m 0 min 0 min 116 W/m 6,8 km/h (2 Bft) 95,74 %
14.08.2018 17:56 23,9 C 22,8 C 21,7 C 71 % 1013,5 hPa 0,0 l/m 0 min 0 min 132 W/m 6,8 km/h (2 Bft) 97,87 %
14.08.2018 17:58 23,9 C 22,8 C 21,7 C 72 % 1013,5 hPa 0,0 l/m 0 min 0 min 169 W/m 4,5 km/h (1 Bft) 93,62 %
14.08.2018 18:00 23,9 C 23,3 C 21,7 C 72 % 1013,6 hPa 0,0 l/m 0 min 0 min 210 W/m 4,5 km/h (1 Bft) 95,74 %
14.08.2018 18:02 23,8 C 22,8 C 21,7 C 73 % 1013,5 hPa 0,0 l/m 0 min 0 min 176 W/m 9,0 km/h (2 Bft) 98,08 %
14.08.2018 18:04 23,8 C 22,8 C 21,7 C 73 % 1013,6 hPa 0,0 l/m 0 min 0 min 160 W/m 6,8 km/h (2 Bft) 97,87 %
14.08.2018 18:07 23,7 C 22,8 C 21,1 C 74 % 1013,6 hPa 0,0 l/m 0 min 0 min 171 W/m 6,8 km/h (2 Bft) 97,14 %
14.08.2018 18:08 23,7 C 22,8 C 21,1 C 74 % 1013,6 hPa 0,0 l/m 1 min 0 min 250 W/m 4,5 km/h (1 Bft) 95,83 %
14.08.2018 18:10 23,7 C 22,8 C 21,7 C 75 % 1013,6 hPa 0,0 l/m 2 min 0 min 211 W/m 4,5 km/h (1 Bft) 95,74 %
14.08.2018 18:12 23,6 C 22,8 C 21,1 C 75 % 1013,6 hPa 0,0 l/m 0 min 0 min 166 W/m 9,0 km/h (2 Bft) 97,87 %
14.08.2018 18:14 23,6 C 22,2 C 21,1 C 75 % 1013,6 hPa 0,0 l/m 0 min 0 min 130 W/m 11,3 km/h (2 Bft) 97,83 %
14.08.2018 18:16 23,5 C 22,2 C 21,1 C 75 % 1013,7 hPa 0,0 l/m 0 min 0 min 79 W/m 9,0 km/h (2 Bft) 97,87 %
14.08.2018 18:18 23,4 C 22,2 C 21,1 C 75 % 1013,7 hPa 0,0 l/m 0 min 0 min 53 W/m 6,8 km/h (2 Bft) 95,74 %
14.08.2018 18:20 23,3 C 22,2 C 21,1 C 75 % 1013,7 hPa 0,0 l/m 0 min 0 min 45 W/m 11,3 km/h (2 Bft) 91,49 %
14.08.2018 18:22 23,3 C 22,2 C 21,1 C 75 % 1013,8 hPa 0,0 l/m 0 min 0 min 43 W/m 13,5 km/h (3 Bft) 95,74 %
14.08.2018 18:24 23,2 C 21,7 C 21,1 C 73 % 1013,8 hPa 0,0 l/m 0 min 0 min 42 W/m 9,0 km/h (2 Bft) 95,65 %
14.08.2018 18:26 23,1 C 21,7 C 21,1 C 71 % 1013,9 hPa 0,0 l/m 0 min 0 min 47 W/m 11,3 km/h (2 Bft) 95,74 %
14.08.2018 18:28 23,0 C 21,7 C 21,1 C 70 % 1013,9 hPa 0,0 l/m 0 min 0 min 45 W/m 9,0 km/h (2 Bft) 93,62 %
14.08.2018 18:30 22,9 C 21,7 C 21,1 C 70 % 1013,8 hPa 0,0 l/m 0 min 0 min 41 W/m 9,0 km/h (2 Bft) 93,62 %
14.08.2018 18:32 22,8 C 21,7 C 21,1 C 71 % 1013,9 hPa 0,0 l/m 0 min 0 min 37 W/m 13,5 km/h (3 Bft) 91,49 %
14.08.2018 18:34 22,8 C 21,7 C 20,6 C 71 % 1014,0 hPa 0,0 l/m 0 min 0 min 39 W/m 15,8 km/h (3 Bft) 91,49 %
14.08.2018 18:36 22,7 C 21,7 C 20,6 C 71 % 1014,0 hPa 0,0 l/m 0 min 0 min 40 W/m 15,8 km/h (3 Bft) 93,48 %
14.08.2018 18:38 22,6 C 21,7 C 20,6 C 71 % 1014,1 hPa 0,0 l/m 0 min 0 min 41 W/m 22,5 km/h (4 Bft) 93,62 %
14.08.2018 18:40 22,6 C 21,1 C 20,6 C 72 % 1014,1 hPa 0,0 l/m 0 min 0 min 41 W/m 13,5 km/h (3 Bft) 91,49 %
14.08.2018 18:42 22,5 C 21,1 C 20,6 C 71 % 1014,1 hPa 0,0 l/m 0 min 0 min 37 W/m 15,8 km/h (3 Bft) 95,74 %
14.08.2018 18:44 22,4 C 21,1 C 20,6 C 72 % 1014,2 hPa 0,0 l/m 0 min 0 min 33 W/m 15,8 km/h (3 Bft) 95,74 %
14.08.2018 18:46 22,3 C 21,1 C 20,6 C 72 % 1014,2 hPa 0,0 l/m 0 min 0 min 35 W/m 22,5 km/h (4 Bft) 95,74 %
14.08.2018 18:48 22,3 C 21,1 C 20,6 C 73 % 1014,2 hPa 0,0 l/m 0 min 0 min 46 W/m 13,5 km/h (3 Bft) 95,65 %
14.08.2018 18:50 22,2 C 21,1 C 20,0 C 73 % 1014,2 hPa 0,0 l/m 0 min 0 min 66 W/m 9,0 km/h (2 Bft) 93,62 %
14.08.2018 18:52 22,2 C 21,1 C 20,0 C 74 % 1014,2 hPa 0,0 l/m 0 min 0 min 80 W/m 15,8 km/h (3 Bft) 91,49 %
14.08.2018 18:54 22,1 C 21,1 C 20,0 C 74 % 1014,3 hPa 0,0 l/m 0 min 0 min 103 W/m 11,3 km/h (2 Bft) 95,74 %
14.08.2018 18:56 22,1 C 21,1 C 20,0 C 74 % 1014,2 hPa 0,0 l/m 0 min 0 min 136 W/m 11,3 km/h (2 Bft) 95,74 %
14.08.2018 18:58 22,1 C 21,7 C 20,6 C 75 % 1014,2 hPa 0,0 l/m 2 min 0 min 152 W/m 6,8 km/h (2 Bft) 95,74 %
14.08.2018 19:00 22,0 C 21,7 C 20,6 C 75 % 1014,2 hPa 0,0 l/m 2 min 0 min 159 W/m 11,3 km/h (2 Bft) 93,48 %
14.08.2018 19:02 22,0 C 21,7 C 20,6 C 75 % 1014,2 hPa 0,0 l/m 2 min 0 min 164 W/m 11,3 km/h (2 Bft) 95,74 %
14.08.2018 19:04 22,0 C 21,7 C 20,6 C 75 % 1014,2 hPa 0,0 l/m 2 min 0 min 163 W/m 11,3 km/h (2 Bft) 95,74 %
14.08.2018 19:06 22,0 C 21,7 C 20,6 C 75 % 1014,2 hPa 0,0 l/m 2 min 0 min 155 W/m 11,3 km/h (2 Bft) 95,74 %
14.08.2018 19:08 21,9 C 21,7 C 20,6 C 75 % 1014,2 hPa 0,0 l/m 2 min 0 min 146 W/m 6,8 km/h (2 Bft) 95,74 %
14.08.2018 19:10 21,9 C 21,7 C 20,6 C 75 % 1014,3 hPa 0,0 l/m 2 min 0 min 142 W/m 9,0 km/h (2 Bft) 93,62 %
14.08.2018 19:12 21,9 C 21,7 C 20,6 C 74 % 1014,2 hPa 0,0 l/m 2 min 0 min 129 W/m 6,8 km/h (2 Bft) 97,83 %
14.08.2018 19:14 21,9 C 21,1 C 20,0 C 75 % 1014,3 hPa 0,0 l/m 0 min 0 min 108 W/m 11,3 km/h (2 Bft) 97,87 %
14.08.2018 19:16 21,9 C 21,1 C 20,0 C 75 % 1014,2 hPa 0,0 l/m 0 min 0 min 92 W/m 11,3 km/h (2 Bft) 100,00 %
14.08.2018 19:18 21,9 C 21,1 C 20,0 C 75 % 1014,2 hPa 0,0 l/m 0 min 0 min 86 W/m 6,8 km/h (2 Bft) 100,00 %
14.08.2018 19:20 21,8 C 21,1 C 20,0 C 75 % 1014,3 hPa 0,0 l/m 0 min 0 min 86 W/m 13,5 km/h (3 Bft) 97,87 %
14.08.2018 19:22 21,8 C 21,1 C 20,0 C 75 % 1014,2 hPa 0,0 l/m 0 min 0 min 84 W/m 9,0 km/h (2 Bft) 100,00 %
14.08.2018 19:24 21,8 C 21,1 C 20,0 C 75 % 1014,2 hPa 0,0 l/m 0 min 0 min 78 W/m 13,5 km/h (3 Bft) 100,00 %
14.08.2018 19:26 21,8 C 21,1 C 20,0 C 75 % 1014,2 hPa 0,0 l/m 0 min 0 min 71 W/m 11,3 km/h (2 Bft) 95,74 %
14.08.2018 19:28 21,8 C 21,1 C 20,0 C 75 % 1014,2 hPa 0,0 l/m 0 min 0 min 65 W/m 11,3 km/h (2 Bft) 97,87 %
14.08.2018 19:30 21,7 C 21,1 C 20,0 C 75 % 1014,2 hPa 0,0 l/m 0 min 0 min 57 W/m 9,0 km/h (2 Bft) 100,00 %
14.08.2018 19:32 21,7 C 21,1 C 20,0 C 75 % 1014,2 hPa 0,0 l/m 0 min 0 min 52 W/m 6,8 km/h (2 Bft) 100,00 %
14.08.2018 19:34 21,7 C 21,1 C 20,0 C 76 % 1014,2 hPa 0,0 l/m 0 min 0 min 50 W/m 9,0 km/h (2 Bft) 100,00 %
14.08.2018 19:36 21,7 C 20,6 C 20,0 C 76 % 1014,2 hPa 0,0 l/m 0 min 0 min 56 W/m 13,5 km/h (3 Bft) 100,00 %
14.08.2018 19:38 21,7 C 20,6 C 20,0 C 76 % 1014,2 hPa 0,0 l/m 0 min 0 min 61 W/m 4,5 km/h (1 Bft) 97,87 %
14.08.2018 19:40 21,7 C 20,6 C 20,0 C 76 % 1014,2 hPa 0,0 l/m 0 min 0 min 62 W/m 6,8 km/h (2 Bft) 100,00 %
14.08.2018 19:42 21,6 C 20,6 C 20,0 C 76 % 1014,2 hPa 0,0 l/m 0 min 0 min 59 W/m 6,8 km/h (2 Bft) 100,00 %
14.08.2018 19:44 21,6 C 20,6 C 20,0 C 76 % 1014,3 hPa 0,0 l/m 0 min 0 min 50 W/m 13,5 km/h (3 Bft) 100,00 %
14.08.2018 19:46 21,6 C 20,6 C 20,0 C 76 % 1014,3 hPa 0,0 l/m 0 min 0 min 42 W/m 9,0 km/h (2 Bft) 100,00 %
14.08.2018 19:48 21,6 C 20,6 C 20,0 C 76 % 1014,3 hPa 0,0 l/m 0 min 0 min 36 W/m 6,8 km/h (2 Bft) 100,00 %
14.08.2018 19:50 21,5 C 20,6 C 20,0 C 77 % 1014,3 hPa 0,0 l/m 0 min 0 min 38 W/m 11,3 km/h (2 Bft) 100,00 %
14.08.2018 19:52 21,5 C 20,6 C 20,0 C 77 % 1014,4 hPa 0,0 l/m 0 min 0 min 49 W/m 9,0 km/h (2 Bft) 100,00 %
14.08.2018 19:54 21,5 C 20,6 C 20,0 C 77 % 1014,4 hPa 0,0 l/m 0 min 0 min 54 W/m 4,5 km/h (1 Bft) 100,00 %
14.08.2018 19:56 21,4 C 20,6 C 20,0 C 77 % 1014,4 hPa 0,0 l/m 0 min 0 min 53 W/m 4,5 km/h (1 Bft) 100,00 %
14.08.2018 19:58 21,4 C 20,6 C 20,0 C 77 % 1014,4 hPa 0,0 l/m 0 min 0 min 48 W/m 4,5 km/h (1 Bft) 100,00 %
14.08.2018 20:00 21,4 C 20,6 C 20,0 C 77 % 1014,4 hPa 0,0 l/m 0 min 0 min 39 W/m 2,3 km/h (1 Bft) 97,87 %
14.08.2018 20:02 21,4 C 20,6 C 20,0 C 77 % 1014,5 hPa 0,0 l/m 0 min 0 min 25 W/m 4,5 km/h (1 Bft) 97,87 %
14.08.2018 20:04 21,4 C 20,6 C 20,0 C 77 % 1014,5 hPa 0,0 l/m 0 min 0 min 18 W/m 4,5 km/h (1 Bft) 100,00 %
14.08.2018 20:06 21,4 C 20,6 C 20,0 C 77 % 1014,5 hPa 0,0 l/m 0 min 0 min 15 W/m 4,5 km/h (1 Bft) 100,00 %
14.08.2018 20:08 21,4 C 20,6 C 20,0 C 77 % 1014,5 hPa 0,0 l/m 0 min 0 min 15 W/m 6,8 km/h (2 Bft) 100,00 %
14.08.2018 20:10 21,4 C 20,6 C 20,0 C 78 % 1014,5 hPa 0,0 l/m 0 min 0 min 16 W/m 4,5 km/h (1 Bft) 100,00 %
14.08.2018 20:12 21,3 C 20,6 C 20,0 C 78 % 1014,6 hPa 0,0 l/m 0 min 0 min 19 W/m 6,8 km/h (2 Bft) 100,00 %
14.08.2018 20:14 21,3 C 20,6 C 20,0 C 78 % 1014,5 hPa 0,0 l/m 0 min 0 min 19 W/m 4,5 km/h (1 Bft) 100,00 %
14.08.2018 20:16 21,3 C 20,6 C 20,0 C 78 % 1014,6 hPa 0,0 l/m 0 min 0 min 17 W/m 4,5 km/h (1 Bft) 100,00 %
14.08.2018 20:18 21,3 C 20,6 C 20,0 C 78 % 1014,6 hPa 0,0 l/m 0 min 0 min 12 W/m 2,3 km/h (1 Bft) 100,00 %
14.08.2018 20:20 21,3 C 20,6 C 20,0 C 78 % 1014,6 hPa 0,0 l/m 0 min 0 min 9 W/m 4,5 km/h (1 Bft) 94,29 %
14.08.2018 20:22 21,3 C 20,6 C 20,0 C 79 % 1014,6 hPa 0,0 l/m 0 min 0 min 6 W/m 4,5 km/h (1 Bft) 100,00 %
14.08.2018 20:24 21,3 C 20,6 C 20,0 C 79 % 1014,6 hPa 0,0 l/m 0 min 0 min 5 W/m 6,8 km/h (2 Bft) 100,00 %
14.08.2018 20:26 21,3 C 20,6 C 20,0 C 79 % 1014,6 hPa 0,0 l/m 0 min 0 min 5 W/m 6,8 km/h (2 Bft) 100,00 %
14.08.2018 20:28 21,3 C 20,6 C 19,4 C 79 % 1014,6 hPa 0,0 l/m 0 min 0 min 7 W/m 4,5 km/h (1 Bft) 100,00 %
14.08.2018 20:30 21,3 C 20,6 C 19,4 C 79 % 1014,7 hPa 0,0 l/m 0 min 0 min 7 W/m 4,5 km/h (1 Bft) 100,00 %
14.08.2018 20:32 21,3 C 20,6 C 19,4 C 79 % 1014,7 hPa 0,0 l/m 0 min 0 min 8 W/m 6,8 km/h (2 Bft) 100,00 %
14.08.2018 20:34 21,2 C 20,0 C 19,4 C 79 % 1014,7 hPa 0,0 l/m 0 min 0 min 6 W/m 4,5 km/h (1 Bft) 100,00 %
14.08.2018 20:36 21,2 C 20,0 C 19,4 C 79 % 1014,8 hPa 0,0 l/m 0 min 0 min 1 W/m 6,8 km/h (2 Bft) 100,00 %
14.08.2018 20:38 21,2 C 20,0 C 19,4 C 79 % 1014,7 hPa 0,0 l/m 0 min 0 min 0 W/m 6,8 km/h (2 Bft) 100,00 %
14.08.2018 20:40 21,2 C 20,0 C 19,4 C 79 % 1014,7 hPa 0,0 l/m 0 min 0 min 0 W/m 4,5 km/h (1 Bft) 100,00 %
14.08.2018 20:42 21,2 C 20,0 C 19,4 C 79 % 1014,7 hPa 0,0 l/m 0 min 0 min 0 W/m 4,5 km/h (1 Bft) 100,00 %
14.08.2018 20:44 21,2 C 20,0 C 19,4 C 79 % 1014,8 hPa 0,0 l/m 0 min 2 min 0 W/m 6,8 km/h (2 Bft) 100,00 %
14.08.2018 20:46 21,1 C 19,4 C 19,4 C 79 % 1014,9 hPa 0,0 l/m 0 min 2 min 0 W/m 6,8 km/h (2 Bft) 100,00 %
14.08.2018 20:48 21,1 C 19,4 C 19,4 C 79 % 1014,9 hPa 0,0 l/m 0 min 2 min 0 W/m 6,8 km/h (2 Bft) 100,00 %
14.08.2018 20:50 21,1 C 18,9 C 18,9 C 79 % 1014,9 hPa 0,0 l/m 0 min 2 min 0 W/m 6,8 km/h (2 Bft) 100,00 %
14.08.2018 20:52 21,1 C 18,9 C 19,4 C 80 % 1014,9 hPa 0,0 l/m 0 min 0 min 0 W/m 4,5 km/h (1 Bft) 100,00 %
14.08.2018 20:54 21,1 C 18,9 C 19,4 C 80 % 1014,9 hPa 0,0 l/m 0 min 0 min 0 W/m 6,8 km/h (2 Bft) 100,00 %
14.08.2018 20:56 21,0 C 18,9 C 19,4 C 80 % 1014,9 hPa 0,0 l/m 0 min 0 min 0 W/m 4,5 km/h (1 Bft) 100,00 %
14.08.2018 20:58 21,0 C 18,9 C 19,4 C 80 % 1015,1 hPa 0,0 l/m 0 min 0 min 0 W/m 4,5 km/h (1 Bft) 100,00 %
14.08.2018 21:00 21,0 C 19,4 C 19,4 C 80 % 1015,1 hPa 0,0 l/m 0 min 0 min 0 W/m 9,0 km/h (2 Bft) 100,00 %
14.08.2018 21:02 20,9 C 19,4 C 19,4 C 80 % 1015,1 hPa 0,0 l/m 0 min 0 min 0 W/m 4,5 km/h (1 Bft) 93,62 %
14.08.2018 21:04 20,9 C 19,4 C 19,4 C 80 % 1015,1 hPa 0,0 l/m 0 min 0 min 0 W/m 11,3 km/h (2 Bft) 93,62 %
14.08.2018 21:06 20,9 C 19,4 C 18,9 C 80 % 1015,1 hPa 0,0 l/m 0 min 0 min 0 W/m 6,8 km/h (2 Bft) 100,00 %
14.08.2018 21:08 20,8 C 19,4 C 18,9 C 80 % 1015,1 hPa 0,0 l/m 0 min 0 min 0 W/m 11,3 km/h (2 Bft) 95,83 %
14.08.2018 21:10 20,8 C 19,4 C 18,9 C 80 % 1015,2 hPa 0,0 l/m 0 min 0 min 0 W/m 9,0 km/h (2 Bft) 96,55 %
14.08.2018 21:12 20,7 C 19,4 C 18,9 C 80 % 1015,2 hPa 0,0 l/m 0 min 0 min 0 W/m 6,8 km/h (2 Bft) 95,74 %
14.08.2018 21:14 20,7 C 19,4 C 18,9 C 80 % 1015,2 hPa 0,0 l/m 0 min 0 min 0 W/m 6,8 km/h (2 Bft) 93,62 %
14.08.2018 21:16 20,7 C 19,4 C 18,9 C 80 % 1015,2 hPa 0,0 l/m 0 min 0 min 0 W/m 4,5 km/h (1 Bft) 95,74 %
14.08.2018 21:18 20,7 C 19,4 C 18,9 C 80 % 1015,2 hPa 0,0 l/m 0 min 0 min 0 W/m 4,5 km/h (1 Bft) 93,62 %
14.08.2018 21:20 20,6 C 19,4 C 18,9 C 80 % 1015,2 hPa 0,0 l/m 0 min 0 min 0 W/m 9,0 km/h (2 Bft) 94,83 %
14.08.2018 21:22 20,6 C 19,4 C 18,9 C 80 % 1015,3 hPa 0,0 l/m 0 min 0 min 0 W/m 11,3 km/h (2 Bft) 94,29 %
14.08.2018 21:24 20,6 C 19,4 C 18,9 C 80 % 1015,3 hPa 0,0 l/m 0 min 0 min 0 W/m 9,0 km/h (2 Bft) 93,62 %
14.08.2018 21:26 20,6 C 19,4 C 18,9 C 80 % 1015,3 hPa 0,0 l/m 0 min 0 min 0 W/m 4,5 km/h (1 Bft) 91,49 %
14.08.2018 21:28 20,6 C 19,4 C 18,9 C 80 % 1015,4 hPa 0,0 l/m 0 min 0 min 0 W/m 9,0 km/h (2 Bft) 93,62 %
14.08.2018 21:30 20,5 C 19,4 C 18,9 C 80 % 1015,4 hPa 0,0 l/m 0 min 0 min 0 W/m 4,5 km/h (1 Bft) 91,49 %
14.08.2018 21:32 20,5 C 19,4 C 18,9 C 80 % 1015,4 hPa 0,0 l/m 0 min 0 min 0 W/m 6,8 km/h (2 Bft) 93,62 %
14.08.2018 21:34 20,5 C 19,4 C 18,9 C 80 % 1015,4 hPa 0,0 l/m 0 min 0 min 0 W/m 4,5 km/h (1 Bft) 93,48 %
14.08.2018 21:36 20,4 C 19,4 C 18,9 C 80 % 1015,4 hPa 0,0 l/m 0 min 0 min 0 W/m 4,5 km/h (1 Bft) 93,62 %
14.08.2018 21:38 20,4 C 19,4 C 18,9 C 81 % 1015,4 hPa 0,0 l/m 0 min 0 min 0 W/m 2,3 km/h (1 Bft) 93,62 %
14.08.2018 21:40 20,4 C 19,4 C 18,9 C 81 % 1015,4 hPa 0,0 l/m 0 min 0 min 0 W/m 6,8 km/h (2 Bft) 93,62 %
14.08.2018 21:42 20,4 C 19,4 C 18,9 C 81 % 1015,5 hPa 0,0 l/m 0 min 0 min 0 W/m 4,5 km/h (1 Bft) 89,36 %
14.08.2018 21:44 20,4 C 18,9 C 18,9 C 81 % 1015,4 hPa 0,0 l/m 0 min 0 min 0 W/m 2,3 km/h (1 Bft) 91,30 %
14.08.2018 21:46 20,4 C 18,9 C 18,9 C 81 % 1015,5 hPa 0,0 l/m 0 min 0 min 0 W/m 6,8 km/h (2 Bft) 93,62 %
14.08.2018 21:48 20,3 C 18,9 C 18,9 C 81 % 1015,5 hPa 0,0 l/m 0 min 0 min 0 W/m 4,5 km/h (1 Bft) 89,36 %
14.08.2018 21:50 20,3 C 18,9 C 18,9 C 81 % 1015,5 hPa 0,0 l/m 0 min 0 min 0 W/m 2,3 km/h (1 Bft) 93,62 %
14.08.2018 21:52 20,3 C 18,9 C 18,9 C 81 % 1015,5 hPa 0,0 l/m 0 min 0 min 0 W/m 2,3 km/h (1 Bft) 93,62 %
14.08.2018 21:54 20,3 C 18,9 C 18,9 C 81 % 1015,6 hPa 0,0 l/m 0 min 0 min 0 W/m 2,3 km/h (1 Bft) 93,62 %
14.08.2018 21:56 20,3 C 18,9 C 18,9 C 81 % 1015,6 hPa 0,0 l/m 0 min 0 min 0 W/m 4,5 km/h (1 Bft) 93,48 %
14.08.2018 21:58 20,3 C 18,9 C 18,9 C 81 % 1015,6 hPa 0,0 l/m 0 min 0 min 0 W/m 2,3 km/h (1 Bft) 93,62 %
14.08.2018 22:00 20,2 C 18,9 C 18,9 C 81 % 1015,6 hPa 0,0 l/m 0 min 0 min 0 W/m 2,3 km/h (1 Bft) 93,62 %
14.08.2018 22:02 20,2 C 18,9 C 18,9 C 82 % 1015,5 hPa 0,0 l/m 0 min 0 min 0 W/m 4,5 km/h (1 Bft) 93,62 %
14.08.2018 22:04 20,2 C 18,9 C 18,9 C 82 % 1015,6 hPa 0,0 l/m 0 min 0 min 0 W/m 2,3 km/h (1 Bft) 95,74 %
14.08.2018 22:06 20,2 C 18,9 C 18,9 C 82 % 1015,6 hPa 0,0 l/m 0 min 0 min 0 W/m 6,8 km/h (2 Bft) 95,74 %
14.08.2018 22:08 20,2 C 18,9 C 18,9 C 82 % 1015,6 hPa 0,0 l/m 0 min 0 min 0 W/m 6,8 km/h (2 Bft) 97,83 %
14.08.2018 22:10 20,2 C 18,9 C 18,9 C 82 % 1015,6 hPa 0,0 l/m 0 min 0 min 0 W/m 4,5 km/h (1 Bft) 95,74 %
14.08.2018 22:12 20,2 C 18,9 C 18,9 C 82 % 1015,6 hPa 0,0 l/m 0 min 0 min 0 W/m 6,8 km/h (2 Bft) 97,87 %
14.08.2018 22:14 20,2 C 18,9 C 18,9 C 82 % 1015,7 hPa 0,0 l/m 0 min 0 min 0 W/m 2,3 km/h (1 Bft) 100,00 %
14.08.2018 22:16 20,1 C 18,9 C 18,9 C 82 % 1015,7 hPa 0,0 l/m 0 min 0 min 0 W/m 2,3 km/h (1 Bft) 97,87 %
14.08.2018 22:18 20,1 C 18,9 C 18,9 C 82 % 1015,7 hPa 0,0 l/m 0 min 0 min 0 W/m 4,5 km/h (1 Bft) 100,00 %
14.08.2018 22:20 20,1 C 18,9 C 18,9 C 82 % 1015,8 hPa 0,0 l/m 0 min 0 min 0 W/m 4,5 km/h (1 Bft) 100,00 %
14.08.2018 22:22 20,1 C 18,9 C 18,9 C 82 % 1015,8 hPa 0,0 l/m 0 min 0 min 0 W/m 4,5 km/h (1 Bft) 100,00 %
14.08.2018 22:24 20,1 C 18,9 C 18,9 C 82 % 1015,8 hPa 0,0 l/m 0 min 0 min 0 W/m 4,5 km/h (1 Bft) 97,87 %
14.08.2018 22:26 20,0 C 18,9 C 18,9 C 82 % 1015,7 hPa 0,0 l/m 0 min 0 min 0 W/m 4,5 km/h (1 Bft) 100,00 %
14.08.2018 22:28 20,0 C 18,9 C 18,3 C 81 % 1015,7 hPa 0,0 l/m 0 min 0 min 0 W/m 4,5 km/h (1 Bft) 100,00 %
14.08.2018 22:30 19,9 C 18,9 C 18,3 C 81 % 1015,8 hPa 0,0 l/m 0 min 0 min 0 W/m 4,5 km/h (1 Bft) 100,00 %
14.08.2018 22:32 19,9 C 18,9 C 18,3 C 80 % 1015,8 hPa 0,0 l/m 0 min 0 min 0 W/m 9,0 km/h (2 Bft) 97,83 %
14.08.2018 22:34 19,8 C 18,9 C 18,3 C 79 % 1015,8 hPa 0,0 l/m 0 min 0 min 0 W/m 6,8 km/h (2 Bft) 100,00 %
14.08.2018 22:36 19,8 C 18,9 C 18,3 C 78 % 1015,7 hPa 0,0 l/m 0 min 0 min 0 W/m 6,8 km/h (2 Bft) 100,00 %
14.08.2018 22:38 19,7 C 18,3 C 18,3 C 78 % 1015,7 hPa 0,0 l/m 0 min 0 min 0 W/m 2,3 km/h (1 Bft) 97,87 %
14.08.2018 22:40 19,7 C 18,3 C 18,3 C 78 % 1015,7 hPa 0,0 l/m 0 min 0 min 0 W/m 4,5 km/h (1 Bft) 100,00 %
14.08.2018 22:42 19,7 C 18,3 C 18,3 C 77 % 1015,7 hPa 0,0 l/m 0 min 0 min 0 W/m 4,5 km/h (1 Bft) 97,87 %
14.08.2018 22:44 19,6 C 18,3 C 18,3 C 77 % 1015,7 hPa 0,0 l/m 0 min 0 min 0 W/m 6,8 km/h (2 Bft) 100,00 %
14.08.2018 22:46 19,6 C 18,3 C 18,3 C 76 % 1015,7 hPa 0,0 l/m 0 min 0 min 0 W/m 9,0 km/h (2 Bft) 100,00 %
14.08.2018 22:48 19,5 C 18,3 C 18,3 C 76 % 1015,7 hPa 0,0 l/m 0 min 0 min 0 W/m 6,8 km/h (2 Bft) 100,00 %
14.08.2018 22:50 19,5 C 18,3 C 18,3 C 75 % 1015,8 hPa 0,0 l/m 0 min 0 min 0 W/m 4,5 km/h (1 Bft) 100,00 %
14.08.2018 22:52 19,4 C 18,3 C 18,3 C 74 % 1015,8 hPa 0,0 l/m 0 min 0 min 0 W/m 4,5 km/h (1 Bft) 100,00 %
14.08.2018 22:54 19,4 C 18,3 C 18,3 C 74 % 1015,7 hPa 0,0 l/m 0 min 0 min 0 W/m 6,8 km/h (2 Bft) 100,00 %
14.08.2018 22:56 19,3 C 18,3 C 17,8 C 73 % 1015,8 hPa 0,0 l/m 0 min 0 min 0 W/m 4,5 km/h (1 Bft) 100,00 %
14.08.2018 22:58 19,3 C 17,8 C 17,8 C 73 % 1015,8 hPa 0,0 l/m 0 min 0 min 0 W/m 6,8 km/h (2 Bft) 100,00 %
14.08.2018 23:00 19,3 C 17,8 C 17,8 C 73 % 1015,9 hPa 0,0 l/m 0 min 0 min 0 W/m 4,5 km/h (1 Bft) 100,00 %
14.08.2018 23:02 19,2 C 17,8 C 17,8 C 73 % 1015,8 hPa 0,0 l/m 0 min 0 min 0 W/m 4,5 km/h (1 Bft) 100,00 %
14.08.2018 23:04 19,2 C 17,8 C 17,8 C 73 % 1015,9 hPa 0,0 l/m 0 min 0 min 0 W/m 2,3 km/h (1 Bft) 100,00 %
14.08.2018 23:06 19,2 C 17,8 C 17,8 C 72 % 1015,8 hPa 0,0 l/m 0 min 0 min 0 W/m 2,3 km/h (1 Bft) 100,00 %
14.08.2018 23:08 19,2 C 17,8 C 17,8 C 72 % 1015,9 hPa 0,0 l/m 0 min 0 min 0 W/m 2,3 km/h (1 Bft) 100,00 %
14.08.2018 23:10 19,1 C 18,3 C 17,8 C 72 % 1015,8 hPa 0,0 l/m 0 min 0 min 0 W/m 4,5 km/h (1 Bft) 100,00 %
14.08.2018 23:12 19,1 C 18,3 C 17,8 C 72 % 1015,9 hPa 0,0 l/m 0 min 0 min 0 W/m 4,5 km/h (1 Bft) 97,87 %
14.08.2018 23:14 19,1 C 18,3 C 17,8 C 72 % 1015,9 hPa 0,0 l/m 0 min 0 min 0 W/m 6,8 km/h (2 Bft) 100,00 %
14.08.2018 23:16 19,1 C 18,3 C 18,3 C 72 % 1015,9 hPa 0,0 l/m 0 min 0 min 0 W/m 4,5 km/h (1 Bft) 97,87 %
14.08.2018 23:18 19,1 C 18,3 C 18,3 C 73 % 1015,9 hPa 0,0 l/m 0 min 0 min 0 W/m 4,5 km/h (1 Bft) 100,00 %
14.08.2018 23:20 19,0 C 18,3 C 18,3 C 73 % 1015,9 hPa 0,0 l/m 0 min 0 min 0 W/m 6,8 km/h (2 Bft) 100,00 %
14.08.2018 23:22 19,0 C 18,3 C 17,8 C 73 % 1015,9 hPa 0,0 l/m 0 min 0 min 0 W/m 4,5 km/h (1 Bft) 100,00 %
14.08.2018 23:24 19,0 C 18,3 C 17,8 C 73 % 1015,9 hPa 0,0 l/m 0 min 0 min 0 W/m 2,3 km/h (1 Bft) 100,00 %
14.08.2018 23:26 19,0 C 18,3 C 17,8 C 73 % 1015,9 hPa 0,0 l/m 0 min 0 min 0 W/m 2,3 km/h (1 Bft) 100,00 %
14.08.2018 23:28 19,0 C 18,3 C 17,8 C 73 % 1015,9 hPa 0,0 l/m 0 min 0 min 0 W/m 4,5 km/h (1 Bft) 97,87 %
14.08.2018 23:30 19,0 C 18,3 C 17,8 C 73 % 1015,9 hPa 0,0 l/m 0 min 0 min 0 W/m 4,5 km/h (1 Bft) 100,00 %
14.08.2018 23:32 19,0 C 18,3 C 17,8 C 73 % 1015,9 hPa 0,0 l/m 0 min 0 min 0 W/m 2,3 km/h (1 Bft) 100,00 %
14.08.2018 23:34 18,9 C 17,8 C 17,8 C 73 % 1015,9 hPa 0,0 l/m 0 min 0 min 0 W/m 4,5 km/h (1 Bft) 100,00 %
14.08.2018 23:36 18,9 C 17,8 C 17,8 C 73 % 1015,9 hPa 0,0 l/m 0 min 0 min 0 W/m 2,3 km/h (1 Bft) 100,00 %
14.08.2018 23:38 18,9 C 17,8 C 17,8 C 73 % 1015,9 hPa 0,0 l/m 0 min 0 min 0 W/m 4,5 km/h (1 Bft) 100,00 %
14.08.2018 23:40 18,9 C 17,8 C 17,8 C 74 % 1016,0 hPa 0,0 l/m 0 min 0 min 0 W/m 4,5 km/h (1 Bft) 97,87 %
14.08.2018 23:42 18,9 C 17,8 C 17,8 C 74 % 1015,9 hPa 0,0 l/m 0 min 0 min 0 W/m 4,5 km/h (1 Bft) 100,00 %
14.08.2018 23:44 18,9 C 17,8 C 17,8 C 74 % 1015,9 hPa 0,0 l/m 0 min 0 min 0 W/m 2,3 km/h (1 Bft) 100,00 %
14.08.2018 23:46 18,9 C 17,2 C 17,2 C 74 % 1015,9 hPa 0,0 l/m 0 min 0 min 0 W/m 4,5 km/h (1 Bft) 100,00 %
14.08.2018 23:48 18,8 C 17,2 C 17,2 C 74 % 1015,9 hPa 0,0 l/m 0 min 0 min 0 W/m 4,5 km/h (1 Bft) 100,00 %
14.08.2018 23:50 18,8 C 17,2 C 17,2 C 74 % 1016,0 hPa 0,0 l/m 0 min 0 min 0 W/m 4,5 km/h (1 Bft) 100,00 %
14.08.2018 23:52 18,8 C 17,2 C 17,2 C 74 % 1016,1 hPa 0,0 l/m 0 min 0 min 0 W/m 4,5 km/h (1 Bft) 97,87 %
14.08.2018 23:54 18,8 C 17,2 C 17,2 C 74 % 1016,1 hPa 0,0 l/m 0 min 0 min 0 W/m 2,3 km/h (1 Bft) 100,00 %
14.08.2018 23:56 18,7 C 17,2 C 17,2 C 74 % 1016,1 hPa 0,0 l/m 0 min 0 min 0 W/m 2,3 km/h (1 Bft) 100,00 %
14.08.2018 23:58 18,7 C 17,2 C 17,2 C 74 % 1016,1 hPa 0,0 l/m 0 min 0 min 0 W/m 2,3 km/h (1 Bft) 97,87 %
_ Min-Zeit 00:04 07:06 07:12 16:10 00:00 - - - - 00:30 09:02
Minimum _ 16,7 C 15,6 C 15,0 C 60 % 1006,7 hPa - - - - 0,0 km/h (0 Bft) 89,13 %
_ Max-Zeit 16:14 12:18 15:24 08:36 23:52 07:10 12:08 06:50 14:00 11:52 00:04
Maximum _ 25,1 C 30,0 C 23,3 C 97 % 1016,1 hPa 0,2 l/m 4 min 2 min 985 W/m 22,5 km/h
W-NW (4 Bft)
100,00 %
Durchschnitt _ 19,8 C 19,7 C 18,4 C 83 % 1011,4 hPa #0,8 l/m #3:17 h #48 min. 253 W/m 7,4 km/h (2 Bft) 97,60 %
© 2018 W. Hausmann